<?xml version="1.0" encoding="UTF-8" standalone="no" ?>
<gpx xmlns="http://www.topografix.com/GPX/1/1" xmlns:xsi="http://www.w3.org/2001/XMLSchema-instance" xsi:schemaLocation="http://www.topografix.com/GPX/1/1 http://www.topografix.com/GPX/1/1/gpx.xsd" version="1.1" creator="VisuGPX - https://www.visugpx.com">
  <metadata>
    <name>boucle payolle</name>
    <desc><![CDATA[11:24:18

qq arbres en travers du chemin entre col d'aspin et cabanes de la hosse]]></desc>
  </metadata>
  <trk>
    <name><![CDATA[15 févr. 2020]]></name>
    <cmt><![CDATA[11:24:18]]></cmt>
    <desc><![CDATA[comment ...]]></desc>
    <trkseg>
      <trkpt lat="42.94276" lon="0.28482">
        <ele>1115</ele>
        <time>2020-02-15T10:24:20Z</time>
      </trkpt>
      <trkpt lat="42.94275" lon="0.28482">
        <ele>1115</ele>
        <time>2020-02-15T10:24:21Z</time>
      </trkpt>
      <trkpt lat="42.94277" lon="0.28482">
        <ele>1111</ele>
        <time>2020-02-15T10:24:47Z</time>
      </trkpt>
      <trkpt lat="42.94278" lon="0.28486">
        <ele>1109</ele>
        <time>2020-02-15T10:25:06Z</time>
      </trkpt>
      <trkpt lat="42.94282" lon="0.28487">
        <ele>1108</ele>
        <time>2020-02-15T10:25:15Z</time>
      </trkpt>
      <trkpt lat="42.94277" lon="0.28485">
        <ele>1108</ele>
        <time>2020-02-15T10:25:50Z</time>
      </trkpt>
      <trkpt lat="42.94275" lon="0.28487">
        <ele>1107</ele>
        <time>2020-02-15T10:26:19Z</time>
      </trkpt>
      <trkpt lat="42.94276" lon="0.28489">
        <ele>1107</ele>
        <time>2020-02-15T10:26:51Z</time>
      </trkpt>
      <trkpt lat="42.94281" lon="0.28505">
        <ele>1107</ele>
        <time>2020-02-15T10:26:55Z</time>
      </trkpt>
      <trkpt lat="42.94287" lon="0.28538">
        <ele>1108</ele>
        <time>2020-02-15T10:27:01Z</time>
      </trkpt>
      <trkpt lat="42.94363" lon="0.2868">
        <ele>1113</ele>
        <time>2020-02-15T10:27:31Z</time>
      </trkpt>
      <trkpt lat="42.94413" lon="0.28766">
        <ele>1112</ele>
        <time>2020-02-15T10:27:50Z</time>
      </trkpt>
      <trkpt lat="42.94446" lon="0.28805">
        <ele>1112</ele>
        <time>2020-02-15T10:28:01Z</time>
      </trkpt>
      <trkpt lat="42.9449" lon="0.28825">
        <ele>1113</ele>
        <time>2020-02-15T10:28:12Z</time>
      </trkpt>
      <trkpt lat="42.94536" lon="0.28871">
        <ele>1115</ele>
        <time>2020-02-15T10:28:25Z</time>
      </trkpt>
      <trkpt lat="42.94575" lon="0.2893">
        <ele>1116</ele>
        <time>2020-02-15T10:28:38Z</time>
      </trkpt>
      <trkpt lat="42.94617" lon="0.28967">
        <ele>1117</ele>
        <time>2020-02-15T10:28:52Z</time>
      </trkpt>
      <trkpt lat="42.94704" lon="0.29083">
        <ele>1127</ele>
        <time>2020-02-15T10:29:21Z</time>
      </trkpt>
      <trkpt lat="42.9471" lon="0.2909">
        <ele>1127</ele>
        <time>2020-02-15T10:29:23Z</time>
      </trkpt>
      <trkpt lat="42.94716" lon="0.29094">
        <ele>1127</ele>
        <time>2020-02-15T10:29:25Z</time>
      </trkpt>
      <trkpt lat="42.94734" lon="0.29109">
        <ele>1129</ele>
        <time>2020-02-15T10:29:31Z</time>
      </trkpt>
      <trkpt lat="42.9474" lon="0.29113">
        <ele>1129</ele>
        <time>2020-02-15T10:29:33Z</time>
      </trkpt>
      <trkpt lat="42.94753" lon="0.29116">
        <ele>1131</ele>
        <time>2020-02-15T10:29:37Z</time>
      </trkpt>
      <trkpt lat="42.94774" lon="0.29112">
        <ele>1135</ele>
        <time>2020-02-15T10:29:43Z</time>
      </trkpt>
      <trkpt lat="42.94792" lon="0.29112">
        <ele>1138</ele>
        <time>2020-02-15T10:29:48Z</time>
      </trkpt>
      <trkpt lat="42.948" lon="0.29115">
        <ele>1139</ele>
        <time>2020-02-15T10:29:50Z</time>
      </trkpt>
      <trkpt lat="42.94812" lon="0.29123">
        <ele>1140</ele>
        <time>2020-02-15T10:29:53Z</time>
      </trkpt>
      <trkpt lat="42.94817" lon="0.2913">
        <ele>1141</ele>
        <time>2020-02-15T10:29:55Z</time>
      </trkpt>
      <trkpt lat="42.94826" lon="0.29147">
        <ele>1146</ele>
        <time>2020-02-15T10:29:59Z</time>
      </trkpt>
      <trkpt lat="42.94833" lon="0.29164">
        <ele>1147</ele>
        <time>2020-02-15T10:30:03Z</time>
      </trkpt>
      <trkpt lat="42.94838" lon="0.29203">
        <ele>1149</ele>
        <time>2020-02-15T10:30:12Z</time>
      </trkpt>
      <trkpt lat="42.94853" lon="0.29277">
        <ele>1153</ele>
        <time>2020-02-15T10:30:28Z</time>
      </trkpt>
      <trkpt lat="42.94859" lon="0.29291">
        <ele>1156</ele>
        <time>2020-02-15T10:30:31Z</time>
      </trkpt>
      <trkpt lat="42.94864" lon="0.29299">
        <ele>1157</ele>
        <time>2020-02-15T10:30:33Z</time>
      </trkpt>
      <trkpt lat="42.94892" lon="0.29317">
        <ele>1159</ele>
        <time>2020-02-15T10:30:40Z</time>
      </trkpt>
      <trkpt lat="42.94939" lon="0.29332">
        <ele>1159</ele>
        <time>2020-02-15T10:30:53Z</time>
      </trkpt>
      <trkpt lat="42.94986" lon="0.29383">
        <ele>1163</ele>
        <time>2020-02-15T10:31:09Z</time>
      </trkpt>
      <trkpt lat="42.95034" lon="0.29409">
        <ele>1167</ele>
        <time>2020-02-15T10:31:24Z</time>
      </trkpt>
      <trkpt lat="42.95128" lon="0.29487">
        <ele>1183</ele>
        <time>2020-02-15T10:31:54Z</time>
      </trkpt>
      <trkpt lat="42.95169" lon="0.29512">
        <ele>1187</ele>
        <time>2020-02-15T10:32:07Z</time>
      </trkpt>
      <trkpt lat="42.95258" lon="0.2953">
        <ele>1194</ele>
        <time>2020-02-15T10:32:37Z</time>
      </trkpt>
      <trkpt lat="42.95277" lon="0.29531">
        <ele>1197</ele>
        <time>2020-02-15T10:32:43Z</time>
      </trkpt>
      <trkpt lat="42.95286" lon="0.29528">
        <ele>1199</ele>
        <time>2020-02-15T10:32:46Z</time>
      </trkpt>
      <trkpt lat="42.95295" lon="0.29523">
        <ele>1200</ele>
        <time>2020-02-15T10:32:49Z</time>
      </trkpt>
      <trkpt lat="42.95359" lon="0.29487">
        <ele>1212</ele>
        <time>2020-02-15T10:33:14Z</time>
      </trkpt>
      <trkpt lat="42.95371" lon="0.29482">
        <ele>1213</ele>
        <time>2020-02-15T10:33:18Z</time>
      </trkpt>
      <trkpt lat="42.95388" lon="0.29484">
        <ele>1215</ele>
        <time>2020-02-15T10:33:24Z</time>
      </trkpt>
      <trkpt lat="42.95407" lon="0.29497">
        <ele>1218</ele>
        <time>2020-02-15T10:33:34Z</time>
      </trkpt>
      <trkpt lat="42.95421" lon="0.29509">
        <ele>1221</ele>
        <time>2020-02-15T10:33:41Z</time>
      </trkpt>
      <trkpt lat="42.95443" lon="0.29529">
        <ele>1224</ele>
        <time>2020-02-15T10:33:47Z</time>
      </trkpt>
      <trkpt lat="42.9545" lon="0.29539">
        <ele>1225</ele>
        <time>2020-02-15T10:33:50Z</time>
      </trkpt>
      <trkpt lat="42.95473" lon="0.29651">
        <ele>1231</ele>
        <time>2020-02-15T10:34:14Z</time>
      </trkpt>
      <trkpt lat="42.95481" lon="0.29731">
        <ele>1234</ele>
        <time>2020-02-15T10:34:34Z</time>
      </trkpt>
      <trkpt lat="42.95468" lon="0.29811">
        <ele>1236</ele>
        <time>2020-02-15T10:34:55Z</time>
      </trkpt>
      <trkpt lat="42.95463" lon="0.29824">
        <ele>1237</ele>
        <time>2020-02-15T10:35:00Z</time>
      </trkpt>
      <trkpt lat="42.9546" lon="0.29835">
        <ele>1237</ele>
        <time>2020-02-15T10:35:04Z</time>
      </trkpt>
      <trkpt lat="42.95461" lon="0.29848">
        <ele>1238</ele>
        <time>2020-02-15T10:35:07Z</time>
      </trkpt>
      <trkpt lat="42.95466" lon="0.29856">
        <ele>1239</ele>
        <time>2020-02-15T10:35:10Z</time>
      </trkpt>
      <trkpt lat="42.95471" lon="0.2986">
        <ele>1240</ele>
        <time>2020-02-15T10:35:14Z</time>
      </trkpt>
      <trkpt lat="42.95497" lon="0.29825">
        <ele>1247</ele>
        <time>2020-02-15T10:35:32Z</time>
      </trkpt>
      <trkpt lat="42.95514" lon="0.29816">
        <ele>1250</ele>
        <time>2020-02-15T10:35:39Z</time>
      </trkpt>
      <trkpt lat="42.95526" lon="0.29813">
        <ele>1251</ele>
        <time>2020-02-15T10:35:43Z</time>
      </trkpt>
      <trkpt lat="42.95569" lon="0.29826">
        <ele>1256</ele>
        <time>2020-02-15T10:35:57Z</time>
      </trkpt>
      <trkpt lat="42.9565" lon="0.29863">
        <ele>1263</ele>
        <time>2020-02-15T10:36:27Z</time>
      </trkpt>
      <trkpt lat="42.95669" lon="0.29872">
        <ele>1265</ele>
        <time>2020-02-15T10:36:35Z</time>
      </trkpt>
      <trkpt lat="42.95736" lon="0.29906">
        <ele>1272</ele>
        <time>2020-02-15T10:37:00Z</time>
      </trkpt>
      <trkpt lat="42.95741" lon="0.29909">
        <ele>1273</ele>
        <time>2020-02-15T10:37:02Z</time>
      </trkpt>
      <trkpt lat="42.95804" lon="0.29934">
        <ele>1284</ele>
        <time>2020-02-15T10:37:30Z</time>
      </trkpt>
      <trkpt lat="42.95837" lon="0.29954">
        <ele>1289</ele>
        <time>2020-02-15T10:37:42Z</time>
      </trkpt>
      <trkpt lat="42.95864" lon="0.2997">
        <ele>1293</ele>
        <time>2020-02-15T10:37:53Z</time>
      </trkpt>
      <trkpt lat="42.95883" lon="0.29982">
        <ele>1297</ele>
        <time>2020-02-15T10:38:03Z</time>
      </trkpt>
      <trkpt lat="42.95907" lon="0.29993">
        <ele>1301</ele>
        <time>2020-02-15T10:38:12Z</time>
      </trkpt>
      <trkpt lat="42.9593" lon="0.30005">
        <ele>1306</ele>
        <time>2020-02-15T10:38:22Z</time>
      </trkpt>
      <trkpt lat="42.95942" lon="0.30012">
        <ele>1310</ele>
        <time>2020-02-15T10:38:26Z</time>
      </trkpt>
      <trkpt lat="42.95966" lon="0.30025">
        <ele>1314</ele>
        <time>2020-02-15T10:38:35Z</time>
      </trkpt>
      <trkpt lat="42.95985" lon="0.30045">
        <ele>1319</ele>
        <time>2020-02-15T10:38:44Z</time>
      </trkpt>
      <trkpt lat="42.95992" lon="0.30058">
        <ele>1322</ele>
        <time>2020-02-15T10:38:48Z</time>
      </trkpt>
      <trkpt lat="42.96053" lon="0.30156">
        <ele>1334</ele>
        <time>2020-02-15T10:39:19Z</time>
      </trkpt>
      <trkpt lat="42.9607" lon="0.30176">
        <ele>1336</ele>
        <time>2020-02-15T10:39:27Z</time>
      </trkpt>
      <trkpt lat="42.96072" lon="0.30178">
        <ele>1336</ele>
        <time>2020-02-15T10:39:28Z</time>
      </trkpt>
      <trkpt lat="42.96078" lon="0.30181">
        <ele>1337</ele>
        <time>2020-02-15T10:39:30Z</time>
      </trkpt>
      <trkpt lat="42.96098" lon="0.30179">
        <ele>1338</ele>
        <time>2020-02-15T10:39:38Z</time>
      </trkpt>
      <trkpt lat="42.96108" lon="0.30183">
        <ele>1339</ele>
        <time>2020-02-15T10:39:42Z</time>
      </trkpt>
      <trkpt lat="42.96163" lon="0.30258">
        <ele>1349</ele>
        <time>2020-02-15T10:40:12Z</time>
      </trkpt>
      <trkpt lat="42.96174" lon="0.30274">
        <ele>1351</ele>
        <time>2020-02-15T10:40:17Z</time>
      </trkpt>
      <trkpt lat="42.96187" lon="0.30284">
        <ele>1353</ele>
        <time>2020-02-15T10:40:22Z</time>
      </trkpt>
      <trkpt lat="42.96198" lon="0.3029">
        <ele>1354</ele>
        <time>2020-02-15T10:40:26Z</time>
      </trkpt>
      <trkpt lat="42.96222" lon="0.30295">
        <ele>1357</ele>
        <time>2020-02-15T10:40:34Z</time>
      </trkpt>
      <trkpt lat="42.96255" lon="0.30288">
        <ele>1361</ele>
        <time>2020-02-15T10:40:46Z</time>
      </trkpt>
      <trkpt lat="42.96284" lon="0.3028">
        <ele>1363</ele>
        <time>2020-02-15T10:40:56Z</time>
      </trkpt>
      <trkpt lat="42.96304" lon="0.30279">
        <ele>1365</ele>
        <time>2020-02-15T10:41:03Z</time>
      </trkpt>
      <trkpt lat="42.96395" lon="0.30316">
        <ele>1371</ele>
        <time>2020-02-15T10:41:34Z</time>
      </trkpt>
      <trkpt lat="42.96411" lon="0.30326">
        <ele>1372</ele>
        <time>2020-02-15T10:41:40Z</time>
      </trkpt>
      <trkpt lat="42.96426" lon="0.30341">
        <ele>1373</ele>
        <time>2020-02-15T10:41:46Z</time>
      </trkpt>
      <trkpt lat="42.9643" lon="0.30348">
        <ele>1374</ele>
        <time>2020-02-15T10:41:48Z</time>
      </trkpt>
      <trkpt lat="42.96435" lon="0.30366">
        <ele>1375</ele>
        <time>2020-02-15T10:41:52Z</time>
      </trkpt>
      <trkpt lat="42.9643" lon="0.30393">
        <ele>1376</ele>
        <time>2020-02-15T10:41:59Z</time>
      </trkpt>
      <trkpt lat="42.96414" lon="0.30424">
        <ele>1378</ele>
        <time>2020-02-15T10:42:08Z</time>
      </trkpt>
      <trkpt lat="42.96411" lon="0.30439">
        <ele>1379</ele>
        <time>2020-02-15T10:42:12Z</time>
      </trkpt>
      <trkpt lat="42.96411" lon="0.30466">
        <ele>1380</ele>
        <time>2020-02-15T10:42:19Z</time>
      </trkpt>
      <trkpt lat="42.96421" lon="0.30502">
        <ele>1383</ele>
        <time>2020-02-15T10:42:29Z</time>
      </trkpt>
      <trkpt lat="42.96424" lon="0.30536">
        <ele>1385</ele>
        <time>2020-02-15T10:42:37Z</time>
      </trkpt>
      <trkpt lat="42.96421" lon="0.30572">
        <ele>1387</ele>
        <time>2020-02-15T10:42:46Z</time>
      </trkpt>
      <trkpt lat="42.96422" lon="0.30582">
        <ele>1388</ele>
        <time>2020-02-15T10:42:49Z</time>
      </trkpt>
      <trkpt lat="42.96425" lon="0.30592">
        <ele>1389</ele>
        <time>2020-02-15T10:42:52Z</time>
      </trkpt>
      <trkpt lat="42.96429" lon="0.30612">
        <ele>1391</ele>
        <time>2020-02-15T10:42:58Z</time>
      </trkpt>
      <trkpt lat="42.96412" lon="0.30675">
        <ele>1395</ele>
        <time>2020-02-15T10:43:15Z</time>
      </trkpt>
      <trkpt lat="42.96412" lon="0.30706">
        <ele>1397</ele>
        <time>2020-02-15T10:43:23Z</time>
      </trkpt>
      <trkpt lat="42.96415" lon="0.30724">
        <ele>1399</ele>
        <time>2020-02-15T10:43:28Z</time>
      </trkpt>
      <trkpt lat="42.96413" lon="0.30751">
        <ele>1400</ele>
        <time>2020-02-15T10:43:35Z</time>
      </trkpt>
      <trkpt lat="42.96405" lon="0.30766">
        <ele>1401</ele>
        <time>2020-02-15T10:43:39Z</time>
      </trkpt>
      <trkpt lat="42.96392" lon="0.30779">
        <ele>1402</ele>
        <time>2020-02-15T10:43:43Z</time>
      </trkpt>
      <trkpt lat="42.9638" lon="0.30786">
        <ele>1403</ele>
        <time>2020-02-15T10:43:48Z</time>
      </trkpt>
      <trkpt lat="42.96345" lon="0.30802">
        <ele>1406</ele>
        <time>2020-02-15T10:44:00Z</time>
      </trkpt>
      <trkpt lat="42.96325" lon="0.3082">
        <ele>1407</ele>
        <time>2020-02-15T10:44:08Z</time>
      </trkpt>
      <trkpt lat="42.963" lon="0.30858">
        <ele>1409</ele>
        <time>2020-02-15T10:44:20Z</time>
      </trkpt>
      <trkpt lat="42.96293" lon="0.30871">
        <ele>1410</ele>
        <time>2020-02-15T10:44:25Z</time>
      </trkpt>
      <trkpt lat="42.96281" lon="0.30889">
        <ele>1411</ele>
        <time>2020-02-15T10:44:32Z</time>
      </trkpt>
      <trkpt lat="42.96276" lon="0.30895">
        <ele>1412</ele>
        <time>2020-02-15T10:44:35Z</time>
      </trkpt>
      <trkpt lat="42.9627" lon="0.30892">
        <ele>1412</ele>
        <time>2020-02-15T10:44:39Z</time>
      </trkpt>
      <trkpt lat="42.96216" lon="0.30827">
        <ele>1416</ele>
        <time>2020-02-15T10:45:09Z</time>
      </trkpt>
      <trkpt lat="42.96144" lon="0.30757">
        <ele>1419</ele>
        <time>2020-02-15T10:45:40Z</time>
      </trkpt>
      <trkpt lat="42.96131" lon="0.3074">
        <ele>1420</ele>
        <time>2020-02-15T10:45:48Z</time>
      </trkpt>
      <trkpt lat="42.96129" lon="0.30738">
        <ele>1420</ele>
        <time>2020-02-15T10:45:49Z</time>
      </trkpt>
      <trkpt lat="42.96075" lon="0.30642">
        <ele>1423</ele>
        <time>2020-02-15T10:46:19Z</time>
      </trkpt>
      <trkpt lat="42.96015" lon="0.30552">
        <ele>1427</ele>
        <time>2020-02-15T10:46:49Z</time>
      </trkpt>
      <trkpt lat="42.95966" lon="0.30478">
        <ele>1429</ele>
        <time>2020-02-15T10:47:12Z</time>
      </trkpt>
      <trkpt lat="42.95962" lon="0.30476">
        <ele>1430</ele>
        <time>2020-02-15T10:47:13Z</time>
      </trkpt>
      <trkpt lat="42.95959" lon="0.30474">
        <ele>1430</ele>
        <time>2020-02-15T10:47:14Z</time>
      </trkpt>
      <trkpt lat="42.95914" lon="0.30414">
        <ele>1432</ele>
        <time>2020-02-15T10:47:34Z</time>
      </trkpt>
      <trkpt lat="42.95912" lon="0.30411">
        <ele>1432</ele>
        <time>2020-02-15T10:47:35Z</time>
      </trkpt>
      <trkpt lat="42.9591" lon="0.30407">
        <ele>1432</ele>
        <time>2020-02-15T10:47:36Z</time>
      </trkpt>
      <trkpt lat="42.9586" lon="0.30337">
        <ele>1435</ele>
        <time>2020-02-15T10:48:04Z</time>
      </trkpt>
      <trkpt lat="42.9585" lon="0.30331">
        <ele>1435</ele>
        <time>2020-02-15T10:48:09Z</time>
      </trkpt>
      <trkpt lat="42.95839" lon="0.30323">
        <ele>1436</ele>
        <time>2020-02-15T10:48:14Z</time>
      </trkpt>
      <trkpt lat="42.9583" lon="0.30316">
        <ele>1436</ele>
        <time>2020-02-15T10:48:18Z</time>
      </trkpt>
      <trkpt lat="42.95817" lon="0.30307">
        <ele>1437</ele>
        <time>2020-02-15T10:48:22Z</time>
      </trkpt>
      <trkpt lat="42.95801" lon="0.30303">
        <ele>1439</ele>
        <time>2020-02-15T10:48:30Z</time>
      </trkpt>
      <trkpt lat="42.95796" lon="0.30306">
        <ele>1440</ele>
        <time>2020-02-15T10:48:31Z</time>
      </trkpt>
      <trkpt lat="42.95787" lon="0.30311">
        <ele>1442</ele>
        <time>2020-02-15T10:48:33Z</time>
      </trkpt>
      <trkpt lat="42.95734" lon="0.30358">
        <ele>1445</ele>
        <time>2020-02-15T10:48:49Z</time>
      </trkpt>
      <trkpt lat="42.95727" lon="0.30366">
        <ele>1446</ele>
        <time>2020-02-15T10:48:51Z</time>
      </trkpt>
      <trkpt lat="42.95719" lon="0.30371">
        <ele>1446</ele>
        <time>2020-02-15T10:48:53Z</time>
      </trkpt>
      <trkpt lat="42.95676" lon="0.30423">
        <ele>1449</ele>
        <time>2020-02-15T10:49:07Z</time>
      </trkpt>
      <trkpt lat="42.95673" lon="0.30427">
        <ele>1449</ele>
        <time>2020-02-15T10:49:08Z</time>
      </trkpt>
      <trkpt lat="42.95643" lon="0.3047">
        <ele>1449</ele>
        <time>2020-02-15T10:49:20Z</time>
      </trkpt>
      <trkpt lat="42.95622" lon="0.3052">
        <ele>1449</ele>
        <time>2020-02-15T10:49:31Z</time>
      </trkpt>
      <trkpt lat="42.95615" lon="0.30557">
        <ele>1448</ele>
        <time>2020-02-15T10:49:39Z</time>
      </trkpt>
      <trkpt lat="42.95614" lon="0.30569">
        <ele>1448</ele>
        <time>2020-02-15T10:49:41Z</time>
      </trkpt>
      <trkpt lat="42.95611" lon="0.30587">
        <ele>1448</ele>
        <time>2020-02-15T10:49:44Z</time>
      </trkpt>
      <trkpt lat="42.95607" lon="0.30598">
        <ele>1448</ele>
        <time>2020-02-15T10:49:47Z</time>
      </trkpt>
      <trkpt lat="42.95603" lon="0.30618">
        <ele>1447</ele>
        <time>2020-02-15T10:49:51Z</time>
      </trkpt>
      <trkpt lat="42.95597" lon="0.30636">
        <ele>1447</ele>
        <time>2020-02-15T10:49:55Z</time>
      </trkpt>
      <trkpt lat="42.95593" lon="0.3066">
        <ele>1447</ele>
        <time>2020-02-15T10:49:59Z</time>
      </trkpt>
      <trkpt lat="42.95589" lon="0.30699">
        <ele>1446</ele>
        <time>2020-02-15T10:50:06Z</time>
      </trkpt>
      <trkpt lat="42.95584" lon="0.30719">
        <ele>1446</ele>
        <time>2020-02-15T10:50:10Z</time>
      </trkpt>
      <trkpt lat="42.95574" lon="0.30745">
        <ele>1446</ele>
        <time>2020-02-15T10:50:18Z</time>
      </trkpt>
      <trkpt lat="42.95558" lon="0.3079">
        <ele>1445</ele>
        <time>2020-02-15T10:50:29Z</time>
      </trkpt>
      <trkpt lat="42.95556" lon="0.30793">
        <ele>1445</ele>
        <time>2020-02-15T10:50:30Z</time>
      </trkpt>
      <trkpt lat="42.95554" lon="0.30797">
        <ele>1445</ele>
        <time>2020-02-15T10:50:31Z</time>
      </trkpt>
      <trkpt lat="42.95552" lon="0.30805">
        <ele>1445</ele>
        <time>2020-02-15T10:50:33Z</time>
      </trkpt>
      <trkpt lat="42.95548" lon="0.30814">
        <ele>1445</ele>
        <time>2020-02-15T10:50:35Z</time>
      </trkpt>
      <trkpt lat="42.95546" lon="0.30819">
        <ele>1445</ele>
        <time>2020-02-15T10:50:36Z</time>
      </trkpt>
      <trkpt lat="42.95542" lon="0.3082">
        <ele>1445</ele>
        <time>2020-02-15T10:50:39Z</time>
      </trkpt>
      <trkpt lat="42.95521" lon="0.30809">
        <ele>1444</ele>
        <time>2020-02-15T10:50:46Z</time>
      </trkpt>
      <trkpt lat="42.95516" lon="0.30803">
        <ele>1444</ele>
        <time>2020-02-15T10:50:48Z</time>
      </trkpt>
      <trkpt lat="42.95508" lon="0.30794">
        <ele>1444</ele>
        <time>2020-02-15T10:50:51Z</time>
      </trkpt>
      <trkpt lat="42.9546" lon="0.30723">
        <ele>1443</ele>
        <time>2020-02-15T10:51:09Z</time>
      </trkpt>
      <trkpt lat="42.95452" lon="0.30708">
        <ele>1443</ele>
        <time>2020-02-15T10:51:12Z</time>
      </trkpt>
      <trkpt lat="42.9542" lon="0.30662">
        <ele>1443</ele>
        <time>2020-02-15T10:51:24Z</time>
      </trkpt>
      <trkpt lat="42.95417" lon="0.30659">
        <ele>1443</ele>
        <time>2020-02-15T10:51:25Z</time>
      </trkpt>
      <trkpt lat="42.95415" lon="0.30655">
        <ele>1443</ele>
        <time>2020-02-15T10:51:26Z</time>
      </trkpt>
      <trkpt lat="42.95397" lon="0.30642">
        <ele>1443</ele>
        <time>2020-02-15T10:51:31Z</time>
      </trkpt>
      <trkpt lat="42.95391" lon="0.30636">
        <ele>1443</ele>
        <time>2020-02-15T10:51:33Z</time>
      </trkpt>
      <trkpt lat="42.95384" lon="0.30623">
        <ele>1443</ele>
        <time>2020-02-15T10:51:37Z</time>
      </trkpt>
      <trkpt lat="42.95376" lon="0.30615">
        <ele>1443</ele>
        <time>2020-02-15T10:51:40Z</time>
      </trkpt>
      <trkpt lat="42.95347" lon="0.30578">
        <ele>1443</ele>
        <time>2020-02-15T10:51:51Z</time>
      </trkpt>
      <trkpt lat="42.95338" lon="0.30569">
        <ele>1442</ele>
        <time>2020-02-15T10:51:55Z</time>
      </trkpt>
      <trkpt lat="42.95334" lon="0.30563">
        <ele>1442</ele>
        <time>2020-02-15T10:51:58Z</time>
      </trkpt>
      <trkpt lat="42.95329" lon="0.30549">
        <ele>1442</ele>
        <time>2020-02-15T10:52:03Z</time>
      </trkpt>
      <trkpt lat="42.95324" lon="0.30538">
        <ele>1442</ele>
        <time>2020-02-15T10:52:06Z</time>
      </trkpt>
      <trkpt lat="42.95308" lon="0.30516">
        <ele>1442</ele>
        <time>2020-02-15T10:52:12Z</time>
      </trkpt>
      <trkpt lat="42.95299" lon="0.30508">
        <ele>1442</ele>
        <time>2020-02-15T10:52:15Z</time>
      </trkpt>
      <trkpt lat="42.9524" lon="0.30489">
        <ele>1440</ele>
        <time>2020-02-15T10:52:30Z</time>
      </trkpt>
      <trkpt lat="42.95207" lon="0.30493">
        <ele>1439</ele>
        <time>2020-02-15T10:52:37Z</time>
      </trkpt>
      <trkpt lat="42.95204" lon="0.30495">
        <ele>1439</ele>
        <time>2020-02-15T10:52:38Z</time>
      </trkpt>
      <trkpt lat="42.9517" lon="0.30508">
        <ele>1438</ele>
        <time>2020-02-15T10:52:44Z</time>
      </trkpt>
      <trkpt lat="42.95158" lon="0.30514">
        <ele>1438</ele>
        <time>2020-02-15T10:52:46Z</time>
      </trkpt>
      <trkpt lat="42.95147" lon="0.30527">
        <ele>1438</ele>
        <time>2020-02-15T10:52:49Z</time>
      </trkpt>
      <trkpt lat="42.95142" lon="0.30526">
        <ele>1438</ele>
        <time>2020-02-15T10:52:50Z</time>
      </trkpt>
      <trkpt lat="42.95127" lon="0.3053">
        <ele>1437</ele>
        <time>2020-02-15T10:52:52Z</time>
      </trkpt>
      <trkpt lat="42.95111" lon="0.30545">
        <ele>1437</ele>
        <time>2020-02-15T10:52:55Z</time>
      </trkpt>
      <trkpt lat="42.95104" lon="0.30553">
        <ele>1437</ele>
        <time>2020-02-15T10:52:57Z</time>
      </trkpt>
      <trkpt lat="42.95079" lon="0.30578">
        <ele>1436</ele>
        <time>2020-02-15T10:53:04Z</time>
      </trkpt>
      <trkpt lat="42.95046" lon="0.30593">
        <ele>1436</ele>
        <time>2020-02-15T10:53:12Z</time>
      </trkpt>
      <trkpt lat="42.95042" lon="0.30596">
        <ele>1436</ele>
        <time>2020-02-15T10:53:14Z</time>
      </trkpt>
      <trkpt lat="42.95036" lon="0.30599">
        <ele>1436</ele>
        <time>2020-02-15T10:53:16Z</time>
      </trkpt>
      <trkpt lat="42.95031" lon="0.30595">
        <ele>1436</ele>
        <time>2020-02-15T10:53:19Z</time>
      </trkpt>
      <trkpt lat="42.9503" lon="0.3059">
        <ele>1436</ele>
        <time>2020-02-15T10:53:21Z</time>
      </trkpt>
      <trkpt lat="42.95027" lon="0.30576">
        <ele>1435</ele>
        <time>2020-02-15T10:53:26Z</time>
      </trkpt>
      <trkpt lat="42.95011" lon="0.30518">
        <ele>1435</ele>
        <time>2020-02-15T10:53:39Z</time>
      </trkpt>
      <trkpt lat="42.95004" lon="0.30504">
        <ele>1435</ele>
        <time>2020-02-15T10:53:42Z</time>
      </trkpt>
      <trkpt lat="42.94981" lon="0.30481">
        <ele>1435</ele>
        <time>2020-02-15T10:53:48Z</time>
      </trkpt>
      <trkpt lat="42.94952" lon="0.30463">
        <ele>1435</ele>
        <time>2020-02-15T10:53:56Z</time>
      </trkpt>
      <trkpt lat="42.94906" lon="0.30446">
        <ele>1434</ele>
        <time>2020-02-15T10:54:08Z</time>
      </trkpt>
      <trkpt lat="42.94899" lon="0.30445">
        <ele>1434</ele>
        <time>2020-02-15T10:54:10Z</time>
      </trkpt>
      <trkpt lat="42.94806" lon="0.30419">
        <ele>1434</ele>
        <time>2020-02-15T10:54:36Z</time>
      </trkpt>
      <trkpt lat="42.94711" lon="0.30358">
        <ele>1433</ele>
        <time>2020-02-15T10:55:07Z</time>
      </trkpt>
      <trkpt lat="42.94708" lon="0.30355">
        <ele>1433</ele>
        <time>2020-02-15T10:55:09Z</time>
      </trkpt>
      <trkpt lat="42.94698" lon="0.30344">
        <ele>1433</ele>
        <time>2020-02-15T10:55:13Z</time>
      </trkpt>
      <trkpt lat="42.94687" lon="0.3034">
        <ele>1433</ele>
        <time>2020-02-15T10:55:16Z</time>
      </trkpt>
      <trkpt lat="42.94655" lon="0.30314">
        <ele>1433</ele>
        <time>2020-02-15T10:55:27Z</time>
      </trkpt>
      <trkpt lat="42.94645" lon="0.30304">
        <ele>1432</ele>
        <time>2020-02-15T10:55:30Z</time>
      </trkpt>
      <trkpt lat="42.94643" lon="0.30296">
        <ele>1431</ele>
        <time>2020-02-15T10:55:32Z</time>
      </trkpt>
      <trkpt lat="42.94635" lon="0.30243">
        <ele>1430</ele>
        <time>2020-02-15T10:55:42Z</time>
      </trkpt>
      <trkpt lat="42.94633" lon="0.30233">
        <ele>1430</ele>
        <time>2020-02-15T10:55:44Z</time>
      </trkpt>
      <trkpt lat="42.94629" lon="0.30207">
        <ele>1430</ele>
        <time>2020-02-15T10:55:50Z</time>
      </trkpt>
      <trkpt lat="42.94626" lon="0.30195">
        <ele>1430</ele>
        <time>2020-02-15T10:55:53Z</time>
      </trkpt>
      <trkpt lat="42.94617" lon="0.30183">
        <ele>1429</ele>
        <time>2020-02-15T10:55:56Z</time>
      </trkpt>
      <trkpt lat="42.94606" lon="0.30169">
        <ele>1429</ele>
        <time>2020-02-15T10:56:00Z</time>
      </trkpt>
      <trkpt lat="42.94581" lon="0.30132">
        <ele>1428</ele>
        <time>2020-02-15T10:56:10Z</time>
      </trkpt>
      <trkpt lat="42.94576" lon="0.30123">
        <ele>1428</ele>
        <time>2020-02-15T10:56:12Z</time>
      </trkpt>
      <trkpt lat="42.94573" lon="0.30119">
        <ele>1427</ele>
        <time>2020-02-15T10:56:13Z</time>
      </trkpt>
      <trkpt lat="42.94565" lon="0.30103">
        <ele>1427</ele>
        <time>2020-02-15T10:56:17Z</time>
      </trkpt>
      <trkpt lat="42.94557" lon="0.30099">
        <ele>1427</ele>
        <time>2020-02-15T10:56:19Z</time>
      </trkpt>
      <trkpt lat="42.94529" lon="0.30064">
        <ele>1427</ele>
        <time>2020-02-15T10:56:29Z</time>
      </trkpt>
      <trkpt lat="42.94478" lon="0.30024">
        <ele>1426</ele>
        <time>2020-02-15T10:56:43Z</time>
      </trkpt>
      <trkpt lat="42.94453" lon="0.30012">
        <ele>1425</ele>
        <time>2020-02-15T10:56:48Z</time>
      </trkpt>
      <trkpt lat="42.94447" lon="0.30008">
        <ele>1425</ele>
        <time>2020-02-15T10:56:49Z</time>
      </trkpt>
      <trkpt lat="42.94439" lon="0.30005">
        <ele>1425</ele>
        <time>2020-02-15T10:56:50Z</time>
      </trkpt>
      <trkpt lat="42.94432" lon="0.30002">
        <ele>1425</ele>
        <time>2020-02-15T10:56:52Z</time>
      </trkpt>
      <trkpt lat="42.94422" lon="0.30006">
        <ele>1425</ele>
        <time>2020-02-15T10:56:54Z</time>
      </trkpt>
      <trkpt lat="42.94403" lon="0.30005">
        <ele>1424</ele>
        <time>2020-02-15T10:56:59Z</time>
      </trkpt>
      <trkpt lat="42.94381" lon="0.30012">
        <ele>1424</ele>
        <time>2020-02-15T10:57:05Z</time>
      </trkpt>
      <trkpt lat="42.94376" lon="0.30012">
        <ele>1424</ele>
        <time>2020-02-15T10:57:07Z</time>
      </trkpt>
      <trkpt lat="42.94337" lon="0.30014">
        <ele>1423</ele>
        <time>2020-02-15T10:57:16Z</time>
      </trkpt>
      <trkpt lat="42.94326" lon="0.30012">
        <ele>1422</ele>
        <time>2020-02-15T10:57:18Z</time>
      </trkpt>
      <trkpt lat="42.94312" lon="0.30015">
        <ele>1422</ele>
        <time>2020-02-15T10:57:22Z</time>
      </trkpt>
      <trkpt lat="42.94296" lon="0.30014">
        <ele>1422</ele>
        <time>2020-02-15T10:57:27Z</time>
      </trkpt>
      <trkpt lat="42.9429" lon="0.30013">
        <ele>1422</ele>
        <time>2020-02-15T10:57:29Z</time>
      </trkpt>
      <trkpt lat="42.9428" lon="0.30008">
        <ele>1421</ele>
        <time>2020-02-15T10:57:32Z</time>
      </trkpt>
      <trkpt lat="42.94276" lon="0.30006">
        <ele>1421</ele>
        <time>2020-02-15T10:57:33Z</time>
      </trkpt>
      <trkpt lat="42.9427" lon="0.30003">
        <ele>1421</ele>
        <time>2020-02-15T10:57:35Z</time>
      </trkpt>
      <trkpt lat="42.94261" lon="0.3">
        <ele>1421</ele>
        <time>2020-02-15T10:57:40Z</time>
      </trkpt>
      <trkpt lat="42.94249" lon="0.30003">
        <ele>1421</ele>
        <time>2020-02-15T10:57:44Z</time>
      </trkpt>
      <trkpt lat="42.94239" lon="0.30008">
        <ele>1420</ele>
        <time>2020-02-15T10:57:49Z</time>
      </trkpt>
      <trkpt lat="42.94236" lon="0.30012">
        <ele>1420</ele>
        <time>2020-02-15T10:57:59Z</time>
      </trkpt>
      <trkpt lat="42.94238" lon="0.30015">
        <ele>1419</ele>
        <time>2020-02-15T10:59:44Z</time>
      </trkpt>
      <trkpt lat="42.94237" lon="0.3002">
        <ele>1418</ele>
        <time>2020-02-15T11:00:12Z</time>
      </trkpt>
      <trkpt lat="42.94233" lon="0.30023">
        <ele>1413</ele>
        <time>2020-02-15T11:00:15Z</time>
      </trkpt>
      <trkpt lat="42.94229" lon="0.30024">
        <ele>1412</ele>
        <time>2020-02-15T11:00:18Z</time>
      </trkpt>
      <trkpt lat="42.94226" lon="0.30022">
        <ele>1411</ele>
        <time>2020-02-15T11:00:20Z</time>
      </trkpt>
      <trkpt lat="42.94208" lon="0.30036">
        <ele>1408</ele>
        <time>2020-02-15T11:00:30Z</time>
      </trkpt>
      <trkpt lat="42.94199" lon="0.30045">
        <ele>1407</ele>
        <time>2020-02-15T11:00:34Z</time>
      </trkpt>
      <trkpt lat="42.94197" lon="0.30048">
        <ele>1406</ele>
        <time>2020-02-15T11:00:35Z</time>
      </trkpt>
      <trkpt lat="42.94193" lon="0.3006">
        <ele>1406</ele>
        <time>2020-02-15T11:00:38Z</time>
      </trkpt>
      <trkpt lat="42.94191" lon="0.30069">
        <ele>1405</ele>
        <time>2020-02-15T11:00:40Z</time>
      </trkpt>
      <trkpt lat="42.94177" lon="0.3014">
        <ele>1402</ele>
        <time>2020-02-15T11:00:55Z</time>
      </trkpt>
      <trkpt lat="42.94177" lon="0.30159">
        <ele>1398</ele>
        <time>2020-02-15T11:00:58Z</time>
      </trkpt>
      <trkpt lat="42.9418" lon="0.30171">
        <ele>1396</ele>
        <time>2020-02-15T11:01:00Z</time>
      </trkpt>
      <trkpt lat="42.94185" lon="0.30188">
        <ele>1394</ele>
        <time>2020-02-15T11:01:03Z</time>
      </trkpt>
      <trkpt lat="42.94204" lon="0.30213">
        <ele>1392</ele>
        <time>2020-02-15T11:01:09Z</time>
      </trkpt>
      <trkpt lat="42.94208" lon="0.30219">
        <ele>1392</ele>
        <time>2020-02-15T11:01:10Z</time>
      </trkpt>
      <trkpt lat="42.94213" lon="0.30264">
        <ele>1391</ele>
        <time>2020-02-15T11:01:19Z</time>
      </trkpt>
      <trkpt lat="42.94219" lon="0.30291">
        <ele>1390</ele>
        <time>2020-02-15T11:01:24Z</time>
      </trkpt>
      <trkpt lat="42.94229" lon="0.30316">
        <ele>1390</ele>
        <time>2020-02-15T11:01:29Z</time>
      </trkpt>
      <trkpt lat="42.94231" lon="0.30326">
        <ele>1390</ele>
        <time>2020-02-15T11:01:31Z</time>
      </trkpt>
      <trkpt lat="42.94232" lon="0.3033">
        <ele>1389</ele>
        <time>2020-02-15T11:01:32Z</time>
      </trkpt>
      <trkpt lat="42.94231" lon="0.30334">
        <ele>1389</ele>
        <time>2020-02-15T11:01:33Z</time>
      </trkpt>
      <trkpt lat="42.94242" lon="0.30383">
        <ele>1388</ele>
        <time>2020-02-15T11:01:42Z</time>
      </trkpt>
      <trkpt lat="42.94273" lon="0.30483">
        <ele>1386</ele>
        <time>2020-02-15T11:02:01Z</time>
      </trkpt>
      <trkpt lat="42.94275" lon="0.30487">
        <ele>1386</ele>
        <time>2020-02-15T11:02:02Z</time>
      </trkpt>
      <trkpt lat="42.94284" lon="0.30497">
        <ele>1386</ele>
        <time>2020-02-15T11:02:05Z</time>
      </trkpt>
      <trkpt lat="42.94318" lon="0.30513">
        <ele>1385</ele>
        <time>2020-02-15T11:02:12Z</time>
      </trkpt>
      <trkpt lat="42.94323" lon="0.30516">
        <ele>1385</ele>
        <time>2020-02-15T11:02:13Z</time>
      </trkpt>
      <trkpt lat="42.94326" lon="0.30519">
        <ele>1385</ele>
        <time>2020-02-15T11:02:14Z</time>
      </trkpt>
      <trkpt lat="42.94329" lon="0.30522">
        <ele>1385</ele>
        <time>2020-02-15T11:02:15Z</time>
      </trkpt>
      <trkpt lat="42.94331" lon="0.30529">
        <ele>1385</ele>
        <time>2020-02-15T11:02:17Z</time>
      </trkpt>
      <trkpt lat="42.94331" lon="0.30533">
        <ele>1385</ele>
        <time>2020-02-15T11:02:18Z</time>
      </trkpt>
      <trkpt lat="42.94325" lon="0.30547">
        <ele>1384</ele>
        <time>2020-02-15T11:02:21Z</time>
      </trkpt>
      <trkpt lat="42.94322" lon="0.30557">
        <ele>1384</ele>
        <time>2020-02-15T11:02:23Z</time>
      </trkpt>
      <trkpt lat="42.94318" lon="0.3058">
        <ele>1384</ele>
        <time>2020-02-15T11:02:27Z</time>
      </trkpt>
      <trkpt lat="42.94315" lon="0.30596">
        <ele>1384</ele>
        <time>2020-02-15T11:02:30Z</time>
      </trkpt>
      <trkpt lat="42.94307" lon="0.30614">
        <ele>1383</ele>
        <time>2020-02-15T11:02:33Z</time>
      </trkpt>
      <trkpt lat="42.94298" lon="0.30641">
        <ele>1383</ele>
        <time>2020-02-15T11:02:37Z</time>
      </trkpt>
      <trkpt lat="42.94294" lon="0.30663">
        <ele>1383</ele>
        <time>2020-02-15T11:02:41Z</time>
      </trkpt>
      <trkpt lat="42.94295" lon="0.30676">
        <ele>1383</ele>
        <time>2020-02-15T11:02:45Z</time>
      </trkpt>
      <trkpt lat="42.94295" lon="0.3068">
        <ele>1383</ele>
        <time>2020-02-15T11:02:46Z</time>
      </trkpt>
      <trkpt lat="42.94294" lon="0.30686">
        <ele>1383</ele>
        <time>2020-02-15T11:02:48Z</time>
      </trkpt>
      <trkpt lat="42.94296" lon="0.30702">
        <ele>1383</ele>
        <time>2020-02-15T11:02:52Z</time>
      </trkpt>
      <trkpt lat="42.94297" lon="0.30708">
        <ele>1383</ele>
        <time>2020-02-15T11:02:53Z</time>
      </trkpt>
      <trkpt lat="42.94296" lon="0.30716">
        <ele>1383</ele>
        <time>2020-02-15T11:02:55Z</time>
      </trkpt>
      <trkpt lat="42.94286" lon="0.30764">
        <ele>1382</ele>
        <time>2020-02-15T11:03:03Z</time>
      </trkpt>
      <trkpt lat="42.94282" lon="0.30781">
        <ele>1382</ele>
        <time>2020-02-15T11:03:06Z</time>
      </trkpt>
      <trkpt lat="42.94281" lon="0.30794">
        <ele>1382</ele>
        <time>2020-02-15T11:03:08Z</time>
      </trkpt>
      <trkpt lat="42.94272" lon="0.30834">
        <ele>1381</ele>
        <time>2020-02-15T11:03:16Z</time>
      </trkpt>
      <trkpt lat="42.94252" lon="0.30957">
        <ele>1380</ele>
        <time>2020-02-15T11:03:39Z</time>
      </trkpt>
      <trkpt lat="42.94245" lon="0.31115">
        <ele>1380</ele>
        <time>2020-02-15T11:04:09Z</time>
      </trkpt>
      <trkpt lat="42.94245" lon="0.31127">
        <ele>1380</ele>
        <time>2020-02-15T11:04:11Z</time>
      </trkpt>
      <trkpt lat="42.94246" lon="0.31138">
        <ele>1380</ele>
        <time>2020-02-15T11:04:13Z</time>
      </trkpt>
      <trkpt lat="42.94249" lon="0.31147">
        <ele>1380</ele>
        <time>2020-02-15T11:04:15Z</time>
      </trkpt>
      <trkpt lat="42.9425" lon="0.3115">
        <ele>1380</ele>
        <time>2020-02-15T11:04:16Z</time>
      </trkpt>
      <trkpt lat="42.94254" lon="0.31154">
        <ele>1380</ele>
        <time>2020-02-15T11:04:18Z</time>
      </trkpt>
      <trkpt lat="42.94261" lon="0.31154">
        <ele>1380</ele>
        <time>2020-02-15T11:04:20Z</time>
      </trkpt>
      <trkpt lat="42.94296" lon="0.31164">
        <ele>1380</ele>
        <time>2020-02-15T11:04:29Z</time>
      </trkpt>
      <trkpt lat="42.94299" lon="0.31166">
        <ele>1380</ele>
        <time>2020-02-15T11:04:30Z</time>
      </trkpt>
      <trkpt lat="42.94356" lon="0.31255">
        <ele>1381</ele>
        <time>2020-02-15T11:04:52Z</time>
      </trkpt>
      <trkpt lat="42.94383" lon="0.31283">
        <ele>1382</ele>
        <time>2020-02-15T11:05:02Z</time>
      </trkpt>
      <trkpt lat="42.944" lon="0.31309">
        <ele>1383</ele>
        <time>2020-02-15T11:05:08Z</time>
      </trkpt>
      <trkpt lat="42.94466" lon="0.31438">
        <ele>1387</ele>
        <time>2020-02-15T11:05:38Z</time>
      </trkpt>
      <trkpt lat="42.94483" lon="0.31486">
        <ele>1389</ele>
        <time>2020-02-15T11:05:48Z</time>
      </trkpt>
      <trkpt lat="42.9455" lon="0.316">
        <ele>1392</ele>
        <time>2020-02-15T11:06:18Z</time>
      </trkpt>
      <trkpt lat="42.94567" lon="0.31622">
        <ele>1392</ele>
        <time>2020-02-15T11:06:25Z</time>
      </trkpt>
      <trkpt lat="42.94588" lon="0.31639">
        <ele>1394</ele>
        <time>2020-02-15T11:06:32Z</time>
      </trkpt>
      <trkpt lat="42.94594" lon="0.31645">
        <ele>1394</ele>
        <time>2020-02-15T11:06:35Z</time>
      </trkpt>
      <trkpt lat="42.94619" lon="0.317">
        <ele>1396</ele>
        <time>2020-02-15T11:06:48Z</time>
      </trkpt>
      <trkpt lat="42.94624" lon="0.31706">
        <ele>1397</ele>
        <time>2020-02-15T11:06:51Z</time>
      </trkpt>
      <trkpt lat="42.94625" lon="0.31717">
        <ele>1397</ele>
        <time>2020-02-15T11:06:54Z</time>
      </trkpt>
      <trkpt lat="42.94599" lon="0.31751">
        <ele>1410</ele>
        <time>2020-02-15T11:07:02Z</time>
      </trkpt>
      <trkpt lat="42.94582" lon="0.31785">
        <ele>1415</ele>
        <time>2020-02-15T11:07:09Z</time>
      </trkpt>
      <trkpt lat="42.94572" lon="0.31822">
        <ele>1416</ele>
        <time>2020-02-15T11:07:18Z</time>
      </trkpt>
      <trkpt lat="42.94557" lon="0.3191">
        <ele>1423</ele>
        <time>2020-02-15T11:07:39Z</time>
      </trkpt>
      <trkpt lat="42.94546" lon="0.31931">
        <ele>1425</ele>
        <time>2020-02-15T11:07:45Z</time>
      </trkpt>
      <trkpt lat="42.94543" lon="0.31938">
        <ele>1426</ele>
        <time>2020-02-15T11:07:47Z</time>
      </trkpt>
      <trkpt lat="42.94515" lon="0.31973">
        <ele>1430</ele>
        <time>2020-02-15T11:07:59Z</time>
      </trkpt>
      <trkpt lat="42.94489" lon="0.32021">
        <ele>1434</ele>
        <time>2020-02-15T11:08:12Z</time>
      </trkpt>
      <trkpt lat="42.94484" lon="0.32036">
        <ele>1435</ele>
        <time>2020-02-15T11:08:16Z</time>
      </trkpt>
      <trkpt lat="42.94482" lon="0.32042">
        <ele>1435</ele>
        <time>2020-02-15T11:08:18Z</time>
      </trkpt>
      <trkpt lat="42.94479" lon="0.32046">
        <ele>1436</ele>
        <time>2020-02-15T11:08:20Z</time>
      </trkpt>
      <trkpt lat="42.94478" lon="0.32052">
        <ele>1437</ele>
        <time>2020-02-15T11:08:22Z</time>
      </trkpt>
      <trkpt lat="42.94476" lon="0.32059">
        <ele>1437</ele>
        <time>2020-02-15T11:08:24Z</time>
      </trkpt>
      <trkpt lat="42.9446" lon="0.32089">
        <ele>1440</ele>
        <time>2020-02-15T11:08:34Z</time>
      </trkpt>
      <trkpt lat="42.94457" lon="0.32098">
        <ele>1441</ele>
        <time>2020-02-15T11:08:36Z</time>
      </trkpt>
      <trkpt lat="42.94445" lon="0.32131">
        <ele>1443</ele>
        <time>2020-02-15T11:08:45Z</time>
      </trkpt>
      <trkpt lat="42.94444" lon="0.32135">
        <ele>1443</ele>
        <time>2020-02-15T11:08:46Z</time>
      </trkpt>
      <trkpt lat="42.94432" lon="0.32164">
        <ele>1445</ele>
        <time>2020-02-15T11:08:56Z</time>
      </trkpt>
      <trkpt lat="42.94415" lon="0.32202">
        <ele>1448</ele>
        <time>2020-02-15T11:09:10Z</time>
      </trkpt>
      <trkpt lat="42.94411" lon="0.32212">
        <ele>1449</ele>
        <time>2020-02-15T11:09:13Z</time>
      </trkpt>
      <trkpt lat="42.94382" lon="0.32273">
        <ele>1452</ele>
        <time>2020-02-15T11:09:30Z</time>
      </trkpt>
      <trkpt lat="42.94364" lon="0.32305">
        <ele>1453</ele>
        <time>2020-02-15T11:09:39Z</time>
      </trkpt>
      <trkpt lat="42.94352" lon="0.32339">
        <ele>1454</ele>
        <time>2020-02-15T11:09:47Z</time>
      </trkpt>
      <trkpt lat="42.94336" lon="0.32474">
        <ele>1459</ele>
        <time>2020-02-15T11:10:17Z</time>
      </trkpt>
      <trkpt lat="42.94315" lon="0.32613">
        <ele>1464</ele>
        <time>2020-02-15T11:10:47Z</time>
      </trkpt>
      <trkpt lat="42.94304" lon="0.32644">
        <ele>1465</ele>
        <time>2020-02-15T11:10:54Z</time>
      </trkpt>
      <trkpt lat="42.94277" lon="0.32682">
        <ele>1467</ele>
        <time>2020-02-15T11:11:05Z</time>
      </trkpt>
      <trkpt lat="42.94234" lon="0.3272">
        <ele>1469</ele>
        <time>2020-02-15T11:11:20Z</time>
      </trkpt>
      <trkpt lat="42.94231" lon="0.32722">
        <ele>1470</ele>
        <time>2020-02-15T11:11:21Z</time>
      </trkpt>
      <trkpt lat="42.9421" lon="0.32729">
        <ele>1470</ele>
        <time>2020-02-15T11:11:27Z</time>
      </trkpt>
      <trkpt lat="42.94204" lon="0.3273">
        <ele>1471</ele>
        <time>2020-02-15T11:11:29Z</time>
      </trkpt>
      <trkpt lat="42.94197" lon="0.3273">
        <ele>1471</ele>
        <time>2020-02-15T11:11:31Z</time>
      </trkpt>
      <trkpt lat="42.94194" lon="0.3273">
        <ele>1471</ele>
        <time>2020-02-15T11:11:32Z</time>
      </trkpt>
      <trkpt lat="42.94188" lon="0.32726">
        <ele>1471</ele>
        <time>2020-02-15T11:11:34Z</time>
      </trkpt>
      <trkpt lat="42.94184" lon="0.32721">
        <ele>1472</ele>
        <time>2020-02-15T11:11:37Z</time>
      </trkpt>
      <trkpt lat="42.94192" lon="0.32709">
        <ele>1472</ele>
        <time>2020-02-15T11:11:46Z</time>
      </trkpt>
      <trkpt lat="42.94199" lon="0.32702">
        <ele>1473</ele>
        <time>2020-02-15T11:11:51Z</time>
      </trkpt>
      <trkpt lat="42.94198" lon="0.32707">
        <ele>1473</ele>
        <time>2020-02-15T11:12:00Z</time>
      </trkpt>
      <trkpt lat="42.94196" lon="0.32711">
        <ele>1473</ele>
        <time>2020-02-15T11:12:10Z</time>
      </trkpt>
      <trkpt lat="42.94193" lon="0.32712">
        <ele>1473</ele>
        <time>2020-02-15T11:12:16Z</time>
      </trkpt>
      <trkpt lat="42.9419" lon="0.32709">
        <ele>1475</ele>
        <time>2020-02-15T11:13:18Z</time>
      </trkpt>
      <trkpt lat="42.94192" lon="0.32703">
        <ele>1476</ele>
        <time>2020-02-15T11:13:33Z</time>
      </trkpt>
      <trkpt lat="42.94192" lon="0.327">
        <ele>1477</ele>
        <time>2020-02-15T11:13:34Z</time>
      </trkpt>
      <trkpt lat="42.94165" lon="0.3257">
        <ele>1483</ele>
        <time>2020-02-15T11:14:04Z</time>
      </trkpt>
      <trkpt lat="42.94136" lon="0.32435">
        <ele>1486</ele>
        <time>2020-02-15T11:14:34Z</time>
      </trkpt>
      <trkpt lat="42.9413" lon="0.3238">
        <ele>1486</ele>
        <time>2020-02-15T11:14:45Z</time>
      </trkpt>
      <trkpt lat="42.94123" lon="0.32345">
        <ele>1486</ele>
        <time>2020-02-15T11:14:53Z</time>
      </trkpt>
      <trkpt lat="42.94122" lon="0.32338">
        <ele>1486</ele>
        <time>2020-02-15T11:14:55Z</time>
      </trkpt>
      <trkpt lat="42.94121" lon="0.32329">
        <ele>1486</ele>
        <time>2020-02-15T11:14:57Z</time>
      </trkpt>
      <trkpt lat="42.94122" lon="0.32324">
        <ele>1486</ele>
        <time>2020-02-15T11:14:58Z</time>
      </trkpt>
      <trkpt lat="42.94118" lon="0.32306">
        <ele>1486</ele>
        <time>2020-02-15T11:15:02Z</time>
      </trkpt>
      <trkpt lat="42.94117" lon="0.32297">
        <ele>1486</ele>
        <time>2020-02-15T11:15:04Z</time>
      </trkpt>
      <trkpt lat="42.94115" lon="0.32288">
        <ele>1486</ele>
        <time>2020-02-15T11:15:06Z</time>
      </trkpt>
      <trkpt lat="42.94114" lon="0.3227">
        <ele>1486</ele>
        <time>2020-02-15T11:15:10Z</time>
      </trkpt>
      <trkpt lat="42.94112" lon="0.32251">
        <ele>1486</ele>
        <time>2020-02-15T11:15:14Z</time>
      </trkpt>
      <trkpt lat="42.94111" lon="0.32247">
        <ele>1486</ele>
        <time>2020-02-15T11:15:15Z</time>
      </trkpt>
      <trkpt lat="42.94111" lon="0.32242">
        <ele>1486</ele>
        <time>2020-02-15T11:15:16Z</time>
      </trkpt>
      <trkpt lat="42.94105" lon="0.3222">
        <ele>1486</ele>
        <time>2020-02-15T11:15:21Z</time>
      </trkpt>
      <trkpt lat="42.94096" lon="0.322">
        <ele>1486</ele>
        <time>2020-02-15T11:15:25Z</time>
      </trkpt>
      <trkpt lat="42.94094" lon="0.32197">
        <ele>1486</ele>
        <time>2020-02-15T11:15:26Z</time>
      </trkpt>
      <trkpt lat="42.94085" lon="0.3219">
        <ele>1487</ele>
        <time>2020-02-15T11:15:30Z</time>
      </trkpt>
      <trkpt lat="42.94083" lon="0.32188">
        <ele>1487</ele>
        <time>2020-02-15T11:15:33Z</time>
      </trkpt>
      <trkpt lat="42.94071" lon="0.32176">
        <ele>1487</ele>
        <time>2020-02-15T11:15:41Z</time>
      </trkpt>
      <trkpt lat="42.94068" lon="0.32174">
        <ele>1487</ele>
        <time>2020-02-15T11:15:43Z</time>
      </trkpt>
      <trkpt lat="42.94065" lon="0.32173">
        <ele>1487</ele>
        <time>2020-02-15T11:15:45Z</time>
      </trkpt>
      <trkpt lat="42.94062" lon="0.32176">
        <ele>1487</ele>
        <time>2020-02-15T11:16:27Z</time>
      </trkpt>
      <trkpt lat="42.94053" lon="0.32175">
        <ele>1488</ele>
        <time>2020-02-15T11:17:14Z</time>
      </trkpt>
      <trkpt lat="42.94056" lon="0.32173">
        <ele>1488</ele>
        <time>2020-02-15T11:17:28Z</time>
      </trkpt>
      <trkpt lat="42.94064" lon="0.32172">
        <ele>1488</ele>
        <time>2020-02-15T11:17:54Z</time>
      </trkpt>
      <trkpt lat="42.94066" lon="0.32171">
        <ele>1489</ele>
        <time>2020-02-15T11:18:23Z</time>
      </trkpt>
      <trkpt lat="42.94068" lon="0.32175">
        <ele>1490</ele>
        <time>2020-02-15T11:18:43Z</time>
      </trkpt>
      <trkpt lat="42.9408" lon="0.32178">
        <ele>1492</ele>
        <time>2020-02-15T11:18:49Z</time>
      </trkpt>
      <trkpt lat="42.94082" lon="0.32179">
        <ele>1492</ele>
        <time>2020-02-15T11:18:51Z</time>
      </trkpt>
      <trkpt lat="42.94078" lon="0.32181">
        <ele>1492</ele>
        <time>2020-02-15T11:18:55Z</time>
      </trkpt>
      <trkpt lat="42.94084" lon="0.32183">
        <ele>1493</ele>
        <time>2020-02-15T11:19:09Z</time>
      </trkpt>
      <trkpt lat="42.94082" lon="0.32187">
        <ele>1493</ele>
        <time>2020-02-15T11:19:10Z</time>
      </trkpt>
      <trkpt lat="42.94078" lon="0.32187">
        <ele>1493</ele>
        <time>2020-02-15T11:19:13Z</time>
      </trkpt>
      <trkpt lat="42.94075" lon="0.32183">
        <ele>1493</ele>
        <time>2020-02-15T11:19:15Z</time>
      </trkpt>
      <trkpt lat="42.94072" lon="0.32182">
        <ele>1493</ele>
        <time>2020-02-15T11:19:17Z</time>
      </trkpt>
      <trkpt lat="42.94067" lon="0.3218">
        <ele>1494</ele>
        <time>2020-02-15T11:19:19Z</time>
      </trkpt>
      <trkpt lat="42.94052" lon="0.32182">
        <ele>1494</ele>
        <time>2020-02-15T11:19:22Z</time>
      </trkpt>
      <trkpt lat="42.94033" lon="0.32193">
        <ele>1494</ele>
        <time>2020-02-15T11:19:28Z</time>
      </trkpt>
      <trkpt lat="42.94029" lon="0.32195">
        <ele>1494</ele>
        <time>2020-02-15T11:19:29Z</time>
      </trkpt>
      <trkpt lat="42.94026" lon="0.32196">
        <ele>1494</ele>
        <time>2020-02-15T11:19:30Z</time>
      </trkpt>
      <trkpt lat="42.94023" lon="0.32198">
        <ele>1494</ele>
        <time>2020-02-15T11:19:31Z</time>
      </trkpt>
      <trkpt lat="42.94006" lon="0.3222">
        <ele>1495</ele>
        <time>2020-02-15T11:19:38Z</time>
      </trkpt>
      <trkpt lat="42.93987" lon="0.32222">
        <ele>1495</ele>
        <time>2020-02-15T11:19:44Z</time>
      </trkpt>
      <trkpt lat="42.93984" lon="0.32227">
        <ele>1496</ele>
        <time>2020-02-15T11:19:46Z</time>
      </trkpt>
      <trkpt lat="42.93941" lon="0.3223">
        <ele>1498</ele>
        <time>2020-02-15T11:20:00Z</time>
      </trkpt>
      <trkpt lat="42.93934" lon="0.3223">
        <ele>1499</ele>
        <time>2020-02-15T11:20:03Z</time>
      </trkpt>
      <trkpt lat="42.93926" lon="0.32229">
        <ele>1499</ele>
        <time>2020-02-15T11:20:06Z</time>
      </trkpt>
      <trkpt lat="42.93916" lon="0.32227">
        <ele>1500</ele>
        <time>2020-02-15T11:20:10Z</time>
      </trkpt>
      <trkpt lat="42.9389" lon="0.32219">
        <ele>1503</ele>
        <time>2020-02-15T11:20:20Z</time>
      </trkpt>
      <trkpt lat="42.93873" lon="0.32209">
        <ele>1505</ele>
        <time>2020-02-15T11:20:26Z</time>
      </trkpt>
      <trkpt lat="42.93868" lon="0.32205">
        <ele>1506</ele>
        <time>2020-02-15T11:20:28Z</time>
      </trkpt>
      <trkpt lat="42.9384" lon="0.32181">
        <ele>1512</ele>
        <time>2020-02-15T11:20:39Z</time>
      </trkpt>
      <trkpt lat="42.93816" lon="0.32154">
        <ele>1516</ele>
        <time>2020-02-15T11:20:49Z</time>
      </trkpt>
      <trkpt lat="42.93809" lon="0.32149">
        <ele>1517</ele>
        <time>2020-02-15T11:20:51Z</time>
      </trkpt>
      <trkpt lat="42.93803" lon="0.32149">
        <ele>1518</ele>
        <time>2020-02-15T11:20:53Z</time>
      </trkpt>
      <trkpt lat="42.9379" lon="0.32142">
        <ele>1520</ele>
        <time>2020-02-15T11:20:57Z</time>
      </trkpt>
      <trkpt lat="42.93762" lon="0.32138">
        <ele>1523</ele>
        <time>2020-02-15T11:21:04Z</time>
      </trkpt>
      <trkpt lat="42.93752" lon="0.32142">
        <ele>1524</ele>
        <time>2020-02-15T11:21:09Z</time>
      </trkpt>
      <trkpt lat="42.93747" lon="0.32142">
        <ele>1527</ele>
        <time>2020-02-15T11:21:30Z</time>
      </trkpt>
      <trkpt lat="42.93742" lon="0.3214">
        <ele>1528</ele>
        <time>2020-02-15T11:21:33Z</time>
      </trkpt>
      <trkpt lat="42.93738" lon="0.32138">
        <ele>1529</ele>
        <time>2020-02-15T11:21:35Z</time>
      </trkpt>
      <trkpt lat="42.93735" lon="0.32137">
        <ele>1530</ele>
        <time>2020-02-15T11:21:38Z</time>
      </trkpt>
      <trkpt lat="42.93672" lon="0.32144">
        <ele>1538</ele>
        <time>2020-02-15T11:22:04Z</time>
      </trkpt>
      <trkpt lat="42.93661" lon="0.32151">
        <ele>1539</ele>
        <time>2020-02-15T11:22:08Z</time>
      </trkpt>
      <trkpt lat="42.93656" lon="0.32153">
        <ele>1539</ele>
        <time>2020-02-15T11:22:10Z</time>
      </trkpt>
      <trkpt lat="42.9365" lon="0.32156">
        <ele>1539</ele>
        <time>2020-02-15T11:22:12Z</time>
      </trkpt>
      <trkpt lat="42.93622" lon="0.32154">
        <ele>1542</ele>
        <time>2020-02-15T11:22:22Z</time>
      </trkpt>
      <trkpt lat="42.9361" lon="0.32152">
        <ele>1542</ele>
        <time>2020-02-15T11:22:25Z</time>
      </trkpt>
      <trkpt lat="42.93606" lon="0.32151">
        <ele>1542</ele>
        <time>2020-02-15T11:22:26Z</time>
      </trkpt>
      <trkpt lat="42.93596" lon="0.32149">
        <ele>1543</ele>
        <time>2020-02-15T11:22:29Z</time>
      </trkpt>
      <trkpt lat="42.93591" lon="0.32144">
        <ele>1543</ele>
        <time>2020-02-15T11:22:31Z</time>
      </trkpt>
      <trkpt lat="42.93587" lon="0.32142">
        <ele>1543</ele>
        <time>2020-02-15T11:22:33Z</time>
      </trkpt>
      <trkpt lat="42.9358" lon="0.32139">
        <ele>1544</ele>
        <time>2020-02-15T11:22:35Z</time>
      </trkpt>
      <trkpt lat="42.93564" lon="0.32126">
        <ele>1545</ele>
        <time>2020-02-15T11:22:42Z</time>
      </trkpt>
      <trkpt lat="42.93523" lon="0.32087">
        <ele>1547</ele>
        <time>2020-02-15T11:22:58Z</time>
      </trkpt>
      <trkpt lat="42.93505" lon="0.32064">
        <ele>1548</ele>
        <time>2020-02-15T11:23:08Z</time>
      </trkpt>
      <trkpt lat="42.93501" lon="0.3206">
        <ele>1548</ele>
        <time>2020-02-15T11:23:10Z</time>
      </trkpt>
      <trkpt lat="42.93452" lon="0.32003">
        <ele>1550</ele>
        <time>2020-02-15T11:23:36Z</time>
      </trkpt>
      <trkpt lat="42.93449" lon="0.31998">
        <ele>1550</ele>
        <time>2020-02-15T11:23:38Z</time>
      </trkpt>
      <trkpt lat="42.93444" lon="0.31989">
        <ele>1550</ele>
        <time>2020-02-15T11:23:42Z</time>
      </trkpt>
      <trkpt lat="42.93441" lon="0.31986">
        <ele>1550</ele>
        <time>2020-02-15T11:23:44Z</time>
      </trkpt>
      <trkpt lat="42.93428" lon="0.31971">
        <ele>1550</ele>
        <time>2020-02-15T11:23:50Z</time>
      </trkpt>
      <trkpt lat="42.93411" lon="0.31949">
        <ele>1550</ele>
        <time>2020-02-15T11:23:59Z</time>
      </trkpt>
      <trkpt lat="42.93409" lon="0.31946">
        <ele>1550</ele>
        <time>2020-02-15T11:24:00Z</time>
      </trkpt>
      <trkpt lat="42.93402" lon="0.31935">
        <ele>1550</ele>
        <time>2020-02-15T11:24:04Z</time>
      </trkpt>
      <trkpt lat="42.93395" lon="0.31918">
        <ele>1550</ele>
        <time>2020-02-15T11:24:10Z</time>
      </trkpt>
      <trkpt lat="42.93375" lon="0.31871">
        <ele>1550</ele>
        <time>2020-02-15T11:24:24Z</time>
      </trkpt>
      <trkpt lat="42.93374" lon="0.31861">
        <ele>1550</ele>
        <time>2020-02-15T11:24:27Z</time>
      </trkpt>
      <trkpt lat="42.93373" lon="0.31857">
        <ele>1550</ele>
        <time>2020-02-15T11:24:28Z</time>
      </trkpt>
      <trkpt lat="42.93371" lon="0.31849">
        <ele>1550</ele>
        <time>2020-02-15T11:24:30Z</time>
      </trkpt>
      <trkpt lat="42.93369" lon="0.31844">
        <ele>1550</ele>
        <time>2020-02-15T11:24:32Z</time>
      </trkpt>
      <trkpt lat="42.93368" lon="0.3184">
        <ele>1550</ele>
        <time>2020-02-15T11:24:33Z</time>
      </trkpt>
      <trkpt lat="42.93367" lon="0.31836">
        <ele>1550</ele>
        <time>2020-02-15T11:24:34Z</time>
      </trkpt>
      <trkpt lat="42.93358" lon="0.31814">
        <ele>1551</ele>
        <time>2020-02-15T11:24:41Z</time>
      </trkpt>
      <trkpt lat="42.93356" lon="0.31808">
        <ele>1551</ele>
        <time>2020-02-15T11:24:43Z</time>
      </trkpt>
      <trkpt lat="42.93352" lon="0.3174">
        <ele>1550</ele>
        <time>2020-02-15T11:25:00Z</time>
      </trkpt>
      <trkpt lat="42.93355" lon="0.31715">
        <ele>1550</ele>
        <time>2020-02-15T11:25:06Z</time>
      </trkpt>
      <trkpt lat="42.93356" lon="0.31709">
        <ele>1550</ele>
        <time>2020-02-15T11:25:08Z</time>
      </trkpt>
      <trkpt lat="42.93356" lon="0.317">
        <ele>1550</ele>
        <time>2020-02-15T11:25:12Z</time>
      </trkpt>
      <trkpt lat="42.93363" lon="0.31681">
        <ele>1550</ele>
        <time>2020-02-15T11:25:17Z</time>
      </trkpt>
      <trkpt lat="42.93365" lon="0.31672">
        <ele>1550</ele>
        <time>2020-02-15T11:25:19Z</time>
      </trkpt>
      <trkpt lat="42.93366" lon="0.31668">
        <ele>1550</ele>
        <time>2020-02-15T11:25:20Z</time>
      </trkpt>
      <trkpt lat="42.93367" lon="0.31664">
        <ele>1550</ele>
        <time>2020-02-15T11:25:21Z</time>
      </trkpt>
      <trkpt lat="42.93369" lon="0.31633">
        <ele>1550</ele>
        <time>2020-02-15T11:25:30Z</time>
      </trkpt>
      <trkpt lat="42.93364" lon="0.31609">
        <ele>1550</ele>
        <time>2020-02-15T11:25:37Z</time>
      </trkpt>
      <trkpt lat="42.93353" lon="0.31584">
        <ele>1550</ele>
        <time>2020-02-15T11:25:43Z</time>
      </trkpt>
      <trkpt lat="42.93347" lon="0.31574">
        <ele>1550</ele>
        <time>2020-02-15T11:25:47Z</time>
      </trkpt>
      <trkpt lat="42.93344" lon="0.31572">
        <ele>1550</ele>
        <time>2020-02-15T11:25:53Z</time>
      </trkpt>
      <trkpt lat="42.93342" lon="0.31569">
        <ele>1550</ele>
        <time>2020-02-15T11:26:29Z</time>
      </trkpt>
      <trkpt lat="42.93343" lon="0.31569">
        <ele>1550</ele>
        <time>2020-02-15T11:26:53Z</time>
      </trkpt>
      <trkpt lat="42.93334" lon="0.31564">
        <ele>1549</ele>
        <time>2020-02-15T11:27:02Z</time>
      </trkpt>
      <trkpt lat="42.93317" lon="0.31566">
        <ele>1548</ele>
        <time>2020-02-15T11:27:12Z</time>
      </trkpt>
      <trkpt lat="42.93311" lon="0.31566">
        <ele>1548</ele>
        <time>2020-02-15T11:27:14Z</time>
      </trkpt>
      <trkpt lat="42.93307" lon="0.31572">
        <ele>1548</ele>
        <time>2020-02-15T11:27:30Z</time>
      </trkpt>
      <trkpt lat="42.93305" lon="0.31574">
        <ele>1548</ele>
        <time>2020-02-15T11:27:34Z</time>
      </trkpt>
      <trkpt lat="42.93302" lon="0.31575">
        <ele>1548</ele>
        <time>2020-02-15T11:27:38Z</time>
      </trkpt>
      <trkpt lat="42.93301" lon="0.31578">
        <ele>1547</ele>
        <time>2020-02-15T11:28:15Z</time>
      </trkpt>
      <trkpt lat="42.93299" lon="0.31582">
        <ele>1547</ele>
        <time>2020-02-15T11:28:21Z</time>
      </trkpt>
      <trkpt lat="42.93296" lon="0.31581">
        <ele>1547</ele>
        <time>2020-02-15T11:29:01Z</time>
      </trkpt>
      <trkpt lat="42.93283" lon="0.31577">
        <ele>1547</ele>
        <time>2020-02-15T11:29:11Z</time>
      </trkpt>
      <trkpt lat="42.93274" lon="0.3157">
        <ele>1547</ele>
        <time>2020-02-15T11:29:16Z</time>
      </trkpt>
      <trkpt lat="42.93266" lon="0.31571">
        <ele>1546</ele>
        <time>2020-02-15T11:29:19Z</time>
      </trkpt>
      <trkpt lat="42.9326" lon="0.31573">
        <ele>1546</ele>
        <time>2020-02-15T11:29:21Z</time>
      </trkpt>
      <trkpt lat="42.93252" lon="0.31579">
        <ele>1546</ele>
        <time>2020-02-15T11:29:24Z</time>
      </trkpt>
      <trkpt lat="42.93243" lon="0.31581">
        <ele>1546</ele>
        <time>2020-02-15T11:29:28Z</time>
      </trkpt>
      <trkpt lat="42.93223" lon="0.31595">
        <ele>1546</ele>
        <time>2020-02-15T11:29:36Z</time>
      </trkpt>
      <trkpt lat="42.93221" lon="0.31597">
        <ele>1546</ele>
        <time>2020-02-15T11:29:37Z</time>
      </trkpt>
      <trkpt lat="42.93215" lon="0.31601">
        <ele>1546</ele>
        <time>2020-02-15T11:29:39Z</time>
      </trkpt>
      <trkpt lat="42.93213" lon="0.31603">
        <ele>1546</ele>
        <time>2020-02-15T11:29:40Z</time>
      </trkpt>
      <trkpt lat="42.93182" lon="0.31614">
        <ele>1546</ele>
        <time>2020-02-15T11:29:49Z</time>
      </trkpt>
      <trkpt lat="42.9317" lon="0.31617">
        <ele>1546</ele>
        <time>2020-02-15T11:29:54Z</time>
      </trkpt>
      <trkpt lat="42.93163" lon="0.31619">
        <ele>1546</ele>
        <time>2020-02-15T11:29:56Z</time>
      </trkpt>
      <trkpt lat="42.93158" lon="0.31621">
        <ele>1546</ele>
        <time>2020-02-15T11:29:58Z</time>
      </trkpt>
      <trkpt lat="42.93131" lon="0.31629">
        <ele>1545</ele>
        <time>2020-02-15T11:30:08Z</time>
      </trkpt>
      <trkpt lat="42.93124" lon="0.31629">
        <ele>1545</ele>
        <time>2020-02-15T11:30:10Z</time>
      </trkpt>
      <trkpt lat="42.93116" lon="0.31633">
        <ele>1545</ele>
        <time>2020-02-15T11:30:12Z</time>
      </trkpt>
      <trkpt lat="42.9311" lon="0.31636">
        <ele>1545</ele>
        <time>2020-02-15T11:30:14Z</time>
      </trkpt>
      <trkpt lat="42.93105" lon="0.31638">
        <ele>1545</ele>
        <time>2020-02-15T11:30:16Z</time>
      </trkpt>
      <trkpt lat="42.93101" lon="0.3164">
        <ele>1545</ele>
        <time>2020-02-15T11:30:18Z</time>
      </trkpt>
      <trkpt lat="42.93096" lon="0.31644">
        <ele>1545</ele>
        <time>2020-02-15T11:30:20Z</time>
      </trkpt>
      <trkpt lat="42.93092" lon="0.3165">
        <ele>1545</ele>
        <time>2020-02-15T11:30:22Z</time>
      </trkpt>
      <trkpt lat="42.9309" lon="0.31653">
        <ele>1545</ele>
        <time>2020-02-15T11:30:23Z</time>
      </trkpt>
      <trkpt lat="42.93082" lon="0.31663">
        <ele>1545</ele>
        <time>2020-02-15T11:30:27Z</time>
      </trkpt>
      <trkpt lat="42.93077" lon="0.31666">
        <ele>1545</ele>
        <time>2020-02-15T11:30:29Z</time>
      </trkpt>
      <trkpt lat="42.93069" lon="0.31666">
        <ele>1544</ele>
        <time>2020-02-15T11:30:33Z</time>
      </trkpt>
      <trkpt lat="42.93066" lon="0.31667">
        <ele>1544</ele>
        <time>2020-02-15T11:30:35Z</time>
      </trkpt>
      <trkpt lat="42.93047" lon="0.31654">
        <ele>1544</ele>
        <time>2020-02-15T11:30:46Z</time>
      </trkpt>
      <trkpt lat="42.93004" lon="0.31625">
        <ele>1543</ele>
        <time>2020-02-15T11:31:05Z</time>
      </trkpt>
      <trkpt lat="42.92999" lon="0.31622">
        <ele>1542</ele>
        <time>2020-02-15T11:31:07Z</time>
      </trkpt>
      <trkpt lat="42.92996" lon="0.31618">
        <ele>1542</ele>
        <time>2020-02-15T11:31:09Z</time>
      </trkpt>
      <trkpt lat="42.92993" lon="0.31617">
        <ele>1542</ele>
        <time>2020-02-15T11:31:10Z</time>
      </trkpt>
      <trkpt lat="42.92982" lon="0.316">
        <ele>1542</ele>
        <time>2020-02-15T11:31:17Z</time>
      </trkpt>
      <trkpt lat="42.92979" lon="0.31597">
        <ele>1542</ele>
        <time>2020-02-15T11:31:19Z</time>
      </trkpt>
      <trkpt lat="42.92977" lon="0.31594">
        <ele>1542</ele>
        <time>2020-02-15T11:31:21Z</time>
      </trkpt>
      <trkpt lat="42.92973" lon="0.31593">
        <ele>1542</ele>
        <time>2020-02-15T11:31:23Z</time>
      </trkpt>
      <trkpt lat="42.92959" lon="0.31576">
        <ele>1541</ele>
        <time>2020-02-15T11:31:30Z</time>
      </trkpt>
      <trkpt lat="42.92955" lon="0.3157">
        <ele>1541</ele>
        <time>2020-02-15T11:31:32Z</time>
      </trkpt>
      <trkpt lat="42.92951" lon="0.31567">
        <ele>1541</ele>
        <time>2020-02-15T11:31:33Z</time>
      </trkpt>
      <trkpt lat="42.9295" lon="0.31563">
        <ele>1541</ele>
        <time>2020-02-15T11:31:34Z</time>
      </trkpt>
      <trkpt lat="42.92948" lon="0.31559">
        <ele>1541</ele>
        <time>2020-02-15T11:31:35Z</time>
      </trkpt>
      <trkpt lat="42.92941" lon="0.3155">
        <ele>1540</ele>
        <time>2020-02-15T11:31:38Z</time>
      </trkpt>
      <trkpt lat="42.92933" lon="0.31545">
        <ele>1540</ele>
        <time>2020-02-15T11:31:41Z</time>
      </trkpt>
      <trkpt lat="42.92873" lon="0.31528">
        <ele>1539</ele>
        <time>2020-02-15T11:32:02Z</time>
      </trkpt>
      <trkpt lat="42.92868" lon="0.31527">
        <ele>1539</ele>
        <time>2020-02-15T11:32:04Z</time>
      </trkpt>
      <trkpt lat="42.92847" lon="0.31522">
        <ele>1538</ele>
        <time>2020-02-15T11:32:14Z</time>
      </trkpt>
      <trkpt lat="42.9283" lon="0.31512">
        <ele>1538</ele>
        <time>2020-02-15T11:32:22Z</time>
      </trkpt>
      <trkpt lat="42.92827" lon="0.3151">
        <ele>1537</ele>
        <time>2020-02-15T11:32:23Z</time>
      </trkpt>
      <trkpt lat="42.92818" lon="0.31505">
        <ele>1537</ele>
        <time>2020-02-15T11:32:26Z</time>
      </trkpt>
      <trkpt lat="42.92802" lon="0.31496">
        <ele>1537</ele>
        <time>2020-02-15T11:32:33Z</time>
      </trkpt>
      <trkpt lat="42.92745" lon="0.31451">
        <ele>1536</ele>
        <time>2020-02-15T11:32:58Z</time>
      </trkpt>
      <trkpt lat="42.9272" lon="0.31427">
        <ele>1536</ele>
        <time>2020-02-15T11:33:11Z</time>
      </trkpt>
      <trkpt lat="42.92717" lon="0.31422">
        <ele>1535</ele>
        <time>2020-02-15T11:33:13Z</time>
      </trkpt>
      <trkpt lat="42.92709" lon="0.31413">
        <ele>1535</ele>
        <time>2020-02-15T11:33:17Z</time>
      </trkpt>
      <trkpt lat="42.92705" lon="0.31408">
        <ele>1535</ele>
        <time>2020-02-15T11:33:19Z</time>
      </trkpt>
      <trkpt lat="42.92694" lon="0.31395">
        <ele>1535</ele>
        <time>2020-02-15T11:33:24Z</time>
      </trkpt>
      <trkpt lat="42.92692" lon="0.31394">
        <ele>1535</ele>
        <time>2020-02-15T11:33:25Z</time>
      </trkpt>
      <trkpt lat="42.92688" lon="0.31387">
        <ele>1535</ele>
        <time>2020-02-15T11:33:27Z</time>
      </trkpt>
      <trkpt lat="42.92679" lon="0.31367">
        <ele>1535</ele>
        <time>2020-02-15T11:33:32Z</time>
      </trkpt>
      <trkpt lat="42.92677" lon="0.31361">
        <ele>1534</ele>
        <time>2020-02-15T11:33:34Z</time>
      </trkpt>
      <trkpt lat="42.92675" lon="0.31354">
        <ele>1534</ele>
        <time>2020-02-15T11:33:36Z</time>
      </trkpt>
      <trkpt lat="42.92673" lon="0.3135">
        <ele>1534</ele>
        <time>2020-02-15T11:33:37Z</time>
      </trkpt>
      <trkpt lat="42.9267" lon="0.31346">
        <ele>1534</ele>
        <time>2020-02-15T11:33:39Z</time>
      </trkpt>
      <trkpt lat="42.92666" lon="0.31332">
        <ele>1534</ele>
        <time>2020-02-15T11:33:42Z</time>
      </trkpt>
      <trkpt lat="42.92665" lon="0.31329">
        <ele>1534</ele>
        <time>2020-02-15T11:33:43Z</time>
      </trkpt>
      <trkpt lat="42.92662" lon="0.3132">
        <ele>1534</ele>
        <time>2020-02-15T11:33:46Z</time>
      </trkpt>
      <trkpt lat="42.92655" lon="0.31289">
        <ele>1533</ele>
        <time>2020-02-15T11:33:54Z</time>
      </trkpt>
      <trkpt lat="42.92651" lon="0.31277">
        <ele>1533</ele>
        <time>2020-02-15T11:33:58Z</time>
      </trkpt>
      <trkpt lat="42.92647" lon="0.3127">
        <ele>1533</ele>
        <time>2020-02-15T11:34:00Z</time>
      </trkpt>
      <trkpt lat="42.92641" lon="0.31259">
        <ele>1533</ele>
        <time>2020-02-15T11:34:03Z</time>
      </trkpt>
      <trkpt lat="42.9263" lon="0.31245">
        <ele>1533</ele>
        <time>2020-02-15T11:34:08Z</time>
      </trkpt>
      <trkpt lat="42.92614" lon="0.31231">
        <ele>1532</ele>
        <time>2020-02-15T11:34:13Z</time>
      </trkpt>
      <trkpt lat="42.92604" lon="0.31228">
        <ele>1532</ele>
        <time>2020-02-15T11:34:15Z</time>
      </trkpt>
      <trkpt lat="42.92601" lon="0.31224">
        <ele>1532</ele>
        <time>2020-02-15T11:34:17Z</time>
      </trkpt>
      <trkpt lat="42.92581" lon="0.31208">
        <ele>1532</ele>
        <time>2020-02-15T11:34:27Z</time>
      </trkpt>
      <trkpt lat="42.92578" lon="0.31206">
        <ele>1532</ele>
        <time>2020-02-15T11:34:28Z</time>
      </trkpt>
      <trkpt lat="42.92575" lon="0.31205">
        <ele>1532</ele>
        <time>2020-02-15T11:34:29Z</time>
      </trkpt>
      <trkpt lat="42.92564" lon="0.31198">
        <ele>1531</ele>
        <time>2020-02-15T11:34:35Z</time>
      </trkpt>
      <trkpt lat="42.92561" lon="0.31195">
        <ele>1531</ele>
        <time>2020-02-15T11:34:38Z</time>
      </trkpt>
      <trkpt lat="42.92553" lon="0.31191">
        <ele>1531</ele>
        <time>2020-02-15T11:34:42Z</time>
      </trkpt>
      <trkpt lat="42.9255" lon="0.31188">
        <ele>1531</ele>
        <time>2020-02-15T11:34:44Z</time>
      </trkpt>
      <trkpt lat="42.92548" lon="0.31184">
        <ele>1531</ele>
        <time>2020-02-15T11:34:46Z</time>
      </trkpt>
      <trkpt lat="42.92545" lon="0.31182">
        <ele>1531</ele>
        <time>2020-02-15T11:34:48Z</time>
      </trkpt>
      <trkpt lat="42.92525" lon="0.3117">
        <ele>1530</ele>
        <time>2020-02-15T11:34:55Z</time>
      </trkpt>
      <trkpt lat="42.92521" lon="0.31167">
        <ele>1530</ele>
        <time>2020-02-15T11:34:57Z</time>
      </trkpt>
      <trkpt lat="42.92509" lon="0.31157">
        <ele>1530</ele>
        <time>2020-02-15T11:35:01Z</time>
      </trkpt>
      <trkpt lat="42.92506" lon="0.31154">
        <ele>1530</ele>
        <time>2020-02-15T11:35:03Z</time>
      </trkpt>
      <trkpt lat="42.92505" lon="0.31149">
        <ele>1530</ele>
        <time>2020-02-15T11:35:05Z</time>
      </trkpt>
      <trkpt lat="42.92466" lon="0.31108">
        <ele>1529</ele>
        <time>2020-02-15T11:35:25Z</time>
      </trkpt>
      <trkpt lat="42.92437" lon="0.31063">
        <ele>1528</ele>
        <time>2020-02-15T11:35:40Z</time>
      </trkpt>
      <trkpt lat="42.92435" lon="0.31059">
        <ele>1528</ele>
        <time>2020-02-15T11:35:41Z</time>
      </trkpt>
      <trkpt lat="42.92432" lon="0.31054">
        <ele>1528</ele>
        <time>2020-02-15T11:35:43Z</time>
      </trkpt>
      <trkpt lat="42.92424" lon="0.31046">
        <ele>1528</ele>
        <time>2020-02-15T11:35:46Z</time>
      </trkpt>
      <trkpt lat="42.92421" lon="0.31043">
        <ele>1528</ele>
        <time>2020-02-15T11:35:48Z</time>
      </trkpt>
      <trkpt lat="42.92417" lon="0.3104">
        <ele>1527</ele>
        <time>2020-02-15T11:35:50Z</time>
      </trkpt>
      <trkpt lat="42.92413" lon="0.31036">
        <ele>1527</ele>
        <time>2020-02-15T11:35:52Z</time>
      </trkpt>
      <trkpt lat="42.92408" lon="0.31031">
        <ele>1527</ele>
        <time>2020-02-15T11:35:54Z</time>
      </trkpt>
      <trkpt lat="42.924" lon="0.31028">
        <ele>1527</ele>
        <time>2020-02-15T11:35:57Z</time>
      </trkpt>
      <trkpt lat="42.92375" lon="0.31014">
        <ele>1527</ele>
        <time>2020-02-15T11:36:06Z</time>
      </trkpt>
      <trkpt lat="42.92363" lon="0.30997">
        <ele>1527</ele>
        <time>2020-02-15T11:36:12Z</time>
      </trkpt>
      <trkpt lat="42.9236" lon="0.30991">
        <ele>1526</ele>
        <time>2020-02-15T11:36:14Z</time>
      </trkpt>
      <trkpt lat="42.92358" lon="0.30986">
        <ele>1526</ele>
        <time>2020-02-15T11:36:16Z</time>
      </trkpt>
      <trkpt lat="42.92355" lon="0.30981">
        <ele>1526</ele>
        <time>2020-02-15T11:36:18Z</time>
      </trkpt>
      <trkpt lat="42.92352" lon="0.30976">
        <ele>1526</ele>
        <time>2020-02-15T11:36:20Z</time>
      </trkpt>
      <trkpt lat="42.92351" lon="0.30971">
        <ele>1526</ele>
        <time>2020-02-15T11:36:23Z</time>
      </trkpt>
      <trkpt lat="42.92353" lon="0.30966">
        <ele>1526</ele>
        <time>2020-02-15T11:36:26Z</time>
      </trkpt>
      <trkpt lat="42.92355" lon="0.30955">
        <ele>1526</ele>
        <time>2020-02-15T11:36:30Z</time>
      </trkpt>
      <trkpt lat="42.92356" lon="0.30933">
        <ele>1525</ele>
        <time>2020-02-15T11:36:35Z</time>
      </trkpt>
      <trkpt lat="42.92355" lon="0.30921">
        <ele>1525</ele>
        <time>2020-02-15T11:36:38Z</time>
      </trkpt>
      <trkpt lat="42.92354" lon="0.30913">
        <ele>1525</ele>
        <time>2020-02-15T11:36:40Z</time>
      </trkpt>
      <trkpt lat="42.92352" lon="0.309">
        <ele>1525</ele>
        <time>2020-02-15T11:36:43Z</time>
      </trkpt>
      <trkpt lat="42.92353" lon="0.30896">
        <ele>1525</ele>
        <time>2020-02-15T11:36:44Z</time>
      </trkpt>
      <trkpt lat="42.92343" lon="0.30846">
        <ele>1524</ele>
        <time>2020-02-15T11:36:57Z</time>
      </trkpt>
      <trkpt lat="42.92344" lon="0.30831">
        <ele>1524</ele>
        <time>2020-02-15T11:37:01Z</time>
      </trkpt>
      <trkpt lat="42.92342" lon="0.30819">
        <ele>1524</ele>
        <time>2020-02-15T11:37:05Z</time>
      </trkpt>
      <trkpt lat="42.92348" lon="0.30783">
        <ele>1523</ele>
        <time>2020-02-15T11:37:15Z</time>
      </trkpt>
      <trkpt lat="42.92348" lon="0.30778">
        <ele>1523</ele>
        <time>2020-02-15T11:37:17Z</time>
      </trkpt>
      <trkpt lat="42.92353" lon="0.30756">
        <ele>1523</ele>
        <time>2020-02-15T11:37:24Z</time>
      </trkpt>
      <trkpt lat="42.92369" lon="0.30711">
        <ele>1523</ele>
        <time>2020-02-15T11:37:38Z</time>
      </trkpt>
      <trkpt lat="42.92373" lon="0.30704">
        <ele>1522</ele>
        <time>2020-02-15T11:37:41Z</time>
      </trkpt>
      <trkpt lat="42.92376" lon="0.30695">
        <ele>1522</ele>
        <time>2020-02-15T11:37:44Z</time>
      </trkpt>
      <trkpt lat="42.92384" lon="0.30677">
        <ele>1522</ele>
        <time>2020-02-15T11:37:50Z</time>
      </trkpt>
      <trkpt lat="42.9239" lon="0.3066">
        <ele>1522</ele>
        <time>2020-02-15T11:37:57Z</time>
      </trkpt>
      <trkpt lat="42.92392" lon="0.30644">
        <ele>1522</ele>
        <time>2020-02-15T11:38:39Z</time>
      </trkpt>
      <trkpt lat="42.924" lon="0.30629">
        <ele>1522</ele>
        <time>2020-02-15T11:38:48Z</time>
      </trkpt>
      <trkpt lat="42.92405" lon="0.30635">
        <ele>1522</ele>
        <time>2020-02-15T11:38:56Z</time>
      </trkpt>
      <trkpt lat="42.92402" lon="0.30638">
        <ele>1521</ele>
        <time>2020-02-15T11:39:03Z</time>
      </trkpt>
      <trkpt lat="42.92401" lon="0.30629">
        <ele>1521</ele>
        <time>2020-02-15T11:39:13Z</time>
      </trkpt>
      <trkpt lat="42.924" lon="0.30624">
        <ele>1521</ele>
        <time>2020-02-15T11:39:15Z</time>
      </trkpt>
      <trkpt lat="42.92395" lon="0.30605">
        <ele>1521</ele>
        <time>2020-02-15T11:39:21Z</time>
      </trkpt>
      <trkpt lat="42.92394" lon="0.30599">
        <ele>1521</ele>
        <time>2020-02-15T11:39:23Z</time>
      </trkpt>
      <trkpt lat="42.92381" lon="0.30575">
        <ele>1521</ele>
        <time>2020-02-15T11:39:31Z</time>
      </trkpt>
      <trkpt lat="42.9237" lon="0.3055">
        <ele>1521</ele>
        <time>2020-02-15T11:39:40Z</time>
      </trkpt>
      <trkpt lat="42.92367" lon="0.30546">
        <ele>1521</ele>
        <time>2020-02-15T11:39:42Z</time>
      </trkpt>
      <trkpt lat="42.92365" lon="0.30541">
        <ele>1521</ele>
        <time>2020-02-15T11:39:44Z</time>
      </trkpt>
      <trkpt lat="42.92357" lon="0.30531">
        <ele>1520</ele>
        <time>2020-02-15T11:39:56Z</time>
      </trkpt>
      <trkpt lat="42.92352" lon="0.30521">
        <ele>1520</ele>
        <time>2020-02-15T11:40:06Z</time>
      </trkpt>
      <trkpt lat="42.92344" lon="0.30506">
        <ele>1519</ele>
        <time>2020-02-15T11:40:14Z</time>
      </trkpt>
      <trkpt lat="42.92343" lon="0.30501">
        <ele>1519</ele>
        <time>2020-02-15T11:40:16Z</time>
      </trkpt>
      <trkpt lat="42.92336" lon="0.30489">
        <ele>1519</ele>
        <time>2020-02-15T11:40:22Z</time>
      </trkpt>
      <trkpt lat="42.92329" lon="0.3048">
        <ele>1519</ele>
        <time>2020-02-15T11:40:26Z</time>
      </trkpt>
      <trkpt lat="42.92309" lon="0.30435">
        <ele>1517</ele>
        <time>2020-02-15T11:40:44Z</time>
      </trkpt>
      <trkpt lat="42.92302" lon="0.30425">
        <ele>1517</ele>
        <time>2020-02-15T11:40:48Z</time>
      </trkpt>
      <trkpt lat="42.923" lon="0.3042">
        <ele>1517</ele>
        <time>2020-02-15T11:40:50Z</time>
      </trkpt>
      <trkpt lat="42.92273" lon="0.30379">
        <ele>1516</ele>
        <time>2020-02-15T11:41:07Z</time>
      </trkpt>
      <trkpt lat="42.92271" lon="0.30376">
        <ele>1516</ele>
        <time>2020-02-15T11:41:08Z</time>
      </trkpt>
      <trkpt lat="42.92266" lon="0.30365">
        <ele>1515</ele>
        <time>2020-02-15T11:41:12Z</time>
      </trkpt>
      <trkpt lat="42.92264" lon="0.30359">
        <ele>1515</ele>
        <time>2020-02-15T11:41:14Z</time>
      </trkpt>
      <trkpt lat="42.92256" lon="0.3034">
        <ele>1515</ele>
        <time>2020-02-15T11:41:21Z</time>
      </trkpt>
      <trkpt lat="42.92254" lon="0.30335">
        <ele>1514</ele>
        <time>2020-02-15T11:41:23Z</time>
      </trkpt>
      <trkpt lat="42.92246" lon="0.30302">
        <ele>1513</ele>
        <time>2020-02-15T11:41:35Z</time>
      </trkpt>
      <trkpt lat="42.9224" lon="0.30306">
        <ele>1513</ele>
        <time>2020-02-15T11:41:37Z</time>
      </trkpt>
      <trkpt lat="42.92231" lon="0.30289">
        <ele>1512</ele>
        <time>2020-02-15T11:41:44Z</time>
      </trkpt>
      <trkpt lat="42.9223" lon="0.30285">
        <ele>1512</ele>
        <time>2020-02-15T11:41:47Z</time>
      </trkpt>
      <trkpt lat="42.92228" lon="0.30282">
        <ele>1512</ele>
        <time>2020-02-15T11:41:49Z</time>
      </trkpt>
      <trkpt lat="42.92221" lon="0.30279">
        <ele>1512</ele>
        <time>2020-02-15T11:41:52Z</time>
      </trkpt>
      <trkpt lat="42.9222" lon="0.30275">
        <ele>1510</ele>
        <time>2020-02-15T11:42:11Z</time>
      </trkpt>
      <trkpt lat="42.92226" lon="0.30263">
        <ele>1509</ele>
        <time>2020-02-15T11:42:18Z</time>
      </trkpt>
      <trkpt lat="42.92226" lon="0.30257">
        <ele>1509</ele>
        <time>2020-02-15T11:42:20Z</time>
      </trkpt>
      <trkpt lat="42.9223" lon="0.30245">
        <ele>1508</ele>
        <time>2020-02-15T11:42:28Z</time>
      </trkpt>
      <trkpt lat="42.92236" lon="0.30232">
        <ele>1507</ele>
        <time>2020-02-15T11:42:40Z</time>
      </trkpt>
      <trkpt lat="42.92238" lon="0.30228">
        <ele>1506</ele>
        <time>2020-02-15T11:42:45Z</time>
      </trkpt>
      <trkpt lat="42.92237" lon="0.30223">
        <ele>1506</ele>
        <time>2020-02-15T11:42:48Z</time>
      </trkpt>
      <trkpt lat="42.92239" lon="0.30218">
        <ele>1506</ele>
        <time>2020-02-15T11:42:50Z</time>
      </trkpt>
      <trkpt lat="42.92241" lon="0.30212">
        <ele>1505</ele>
        <time>2020-02-15T11:42:52Z</time>
      </trkpt>
      <trkpt lat="42.92242" lon="0.30199">
        <ele>1505</ele>
        <time>2020-02-15T11:42:58Z</time>
      </trkpt>
      <trkpt lat="42.92243" lon="0.30194">
        <ele>1505</ele>
        <time>2020-02-15T11:43:00Z</time>
      </trkpt>
      <trkpt lat="42.92247" lon="0.30189">
        <ele>1504</ele>
        <time>2020-02-15T11:43:02Z</time>
      </trkpt>
      <trkpt lat="42.92249" lon="0.30178">
        <ele>1504</ele>
        <time>2020-02-15T11:43:06Z</time>
      </trkpt>
      <trkpt lat="42.92249" lon="0.30176">
        <ele>1503</ele>
        <time>2020-02-15T11:43:17Z</time>
      </trkpt>
      <trkpt lat="42.92252" lon="0.30172">
        <ele>1503</ele>
        <time>2020-02-15T11:43:19Z</time>
      </trkpt>
      <trkpt lat="42.92255" lon="0.30168">
        <ele>1503</ele>
        <time>2020-02-15T11:43:21Z</time>
      </trkpt>
      <trkpt lat="42.92257" lon="0.30163">
        <ele>1503</ele>
        <time>2020-02-15T11:43:23Z</time>
      </trkpt>
      <trkpt lat="42.92261" lon="0.30149">
        <ele>1502</ele>
        <time>2020-02-15T11:43:30Z</time>
      </trkpt>
      <trkpt lat="42.92262" lon="0.30144">
        <ele>1501</ele>
        <time>2020-02-15T11:43:36Z</time>
      </trkpt>
      <trkpt lat="42.92263" lon="0.30138">
        <ele>1501</ele>
        <time>2020-02-15T11:43:39Z</time>
      </trkpt>
      <trkpt lat="42.92262" lon="0.30125">
        <ele>1501</ele>
        <time>2020-02-15T11:43:44Z</time>
      </trkpt>
      <trkpt lat="42.92262" lon="0.30122">
        <ele>1501</ele>
        <time>2020-02-15T11:43:45Z</time>
      </trkpt>
      <trkpt lat="42.92262" lon="0.30116">
        <ele>1500</ele>
        <time>2020-02-15T11:43:47Z</time>
      </trkpt>
      <trkpt lat="42.92256" lon="0.30102">
        <ele>1500</ele>
        <time>2020-02-15T11:43:52Z</time>
      </trkpt>
      <trkpt lat="42.92252" lon="0.3009">
        <ele>1499</ele>
        <time>2020-02-15T11:44:04Z</time>
      </trkpt>
      <trkpt lat="42.92249" lon="0.30086">
        <ele>1499</ele>
        <time>2020-02-15T11:44:11Z</time>
      </trkpt>
      <trkpt lat="42.92246" lon="0.30085">
        <ele>1498</ele>
        <time>2020-02-15T11:44:20Z</time>
      </trkpt>
      <trkpt lat="42.92239" lon="0.30086">
        <ele>1498</ele>
        <time>2020-02-15T11:44:24Z</time>
      </trkpt>
      <trkpt lat="42.92219" lon="0.3008">
        <ele>1496</ele>
        <time>2020-02-15T11:44:39Z</time>
      </trkpt>
      <trkpt lat="42.92205" lon="0.30079">
        <ele>1496</ele>
        <time>2020-02-15T11:44:44Z</time>
      </trkpt>
      <trkpt lat="42.9215" lon="0.30078">
        <ele>1494</ele>
        <time>2020-02-15T11:45:00Z</time>
      </trkpt>
      <trkpt lat="42.92138" lon="0.30079">
        <ele>1494</ele>
        <time>2020-02-15T11:45:04Z</time>
      </trkpt>
      <trkpt lat="42.92109" lon="0.30081">
        <ele>1492</ele>
        <time>2020-02-15T11:45:13Z</time>
      </trkpt>
      <trkpt lat="42.92075" lon="0.30084">
        <ele>1490</ele>
        <time>2020-02-15T11:45:24Z</time>
      </trkpt>
      <trkpt lat="42.92063" lon="0.30088">
        <ele>1489</ele>
        <time>2020-02-15T11:45:28Z</time>
      </trkpt>
      <trkpt lat="42.92055" lon="0.3009">
        <ele>1488</ele>
        <time>2020-02-15T11:45:31Z</time>
      </trkpt>
      <trkpt lat="42.9205" lon="0.30091">
        <ele>1487</ele>
        <time>2020-02-15T11:45:33Z</time>
      </trkpt>
      <trkpt lat="42.9204" lon="0.30099">
        <ele>1486</ele>
        <time>2020-02-15T11:45:40Z</time>
      </trkpt>
      <trkpt lat="42.92029" lon="0.30105">
        <ele>1485</ele>
        <time>2020-02-15T11:45:45Z</time>
      </trkpt>
      <trkpt lat="42.92011" lon="0.30102">
        <ele>1483</ele>
        <time>2020-02-15T11:45:52Z</time>
      </trkpt>
      <trkpt lat="42.91998" lon="0.30098">
        <ele>1481</ele>
        <time>2020-02-15T11:45:57Z</time>
      </trkpt>
      <trkpt lat="42.91989" lon="0.30097">
        <ele>1480</ele>
        <time>2020-02-15T11:46:01Z</time>
      </trkpt>
      <trkpt lat="42.9198" lon="0.30099">
        <ele>1480</ele>
        <time>2020-02-15T11:46:04Z</time>
      </trkpt>
      <trkpt lat="42.91977" lon="0.30101">
        <ele>1479</ele>
        <time>2020-02-15T11:46:05Z</time>
      </trkpt>
      <trkpt lat="42.91973" lon="0.30105">
        <ele>1479</ele>
        <time>2020-02-15T11:46:07Z</time>
      </trkpt>
      <trkpt lat="42.9197" lon="0.30107">
        <ele>1478</ele>
        <time>2020-02-15T11:46:09Z</time>
      </trkpt>
      <trkpt lat="42.91967" lon="0.30107">
        <ele>1478</ele>
        <time>2020-02-15T11:46:11Z</time>
      </trkpt>
      <trkpt lat="42.91964" lon="0.301">
        <ele>1477</ele>
        <time>2020-02-15T11:46:17Z</time>
      </trkpt>
      <trkpt lat="42.91962" lon="0.30096">
        <ele>1476</ele>
        <time>2020-02-15T11:46:20Z</time>
      </trkpt>
      <trkpt lat="42.91954" lon="0.30089">
        <ele>1474</ele>
        <time>2020-02-15T11:46:25Z</time>
      </trkpt>
      <trkpt lat="42.91952" lon="0.30086">
        <ele>1474</ele>
        <time>2020-02-15T11:46:26Z</time>
      </trkpt>
      <trkpt lat="42.91946" lon="0.30083">
        <ele>1473</ele>
        <time>2020-02-15T11:46:28Z</time>
      </trkpt>
      <trkpt lat="42.91942" lon="0.30083">
        <ele>1473</ele>
        <time>2020-02-15T11:46:29Z</time>
      </trkpt>
      <trkpt lat="42.91938" lon="0.30083">
        <ele>1473</ele>
        <time>2020-02-15T11:46:30Z</time>
      </trkpt>
      <trkpt lat="42.91935" lon="0.30081">
        <ele>1473</ele>
        <time>2020-02-15T11:46:31Z</time>
      </trkpt>
      <trkpt lat="42.91932" lon="0.30079">
        <ele>1472</ele>
        <time>2020-02-15T11:46:32Z</time>
      </trkpt>
      <trkpt lat="42.919" lon="0.30077">
        <ele>1470</ele>
        <time>2020-02-15T11:46:42Z</time>
      </trkpt>
      <trkpt lat="42.91897" lon="0.30076">
        <ele>1470</ele>
        <time>2020-02-15T11:46:43Z</time>
      </trkpt>
      <trkpt lat="42.91886" lon="0.30074">
        <ele>1469</ele>
        <time>2020-02-15T11:46:47Z</time>
      </trkpt>
      <trkpt lat="42.91883" lon="0.30073">
        <ele>1468</ele>
        <time>2020-02-15T11:46:53Z</time>
      </trkpt>
      <trkpt lat="42.9188" lon="0.30074">
        <ele>1467</ele>
        <time>2020-02-15T11:46:57Z</time>
      </trkpt>
      <trkpt lat="42.91878" lon="0.30077">
        <ele>1467</ele>
        <time>2020-02-15T11:47:00Z</time>
      </trkpt>
      <trkpt lat="42.91875" lon="0.30075">
        <ele>1466</ele>
        <time>2020-02-15T11:47:20Z</time>
      </trkpt>
      <trkpt lat="42.91872" lon="0.30074">
        <ele>1464</ele>
        <time>2020-02-15T11:47:23Z</time>
      </trkpt>
      <trkpt lat="42.91866" lon="0.30075">
        <ele>1463</ele>
        <time>2020-02-15T11:47:28Z</time>
      </trkpt>
      <trkpt lat="42.91863" lon="0.30073">
        <ele>1463</ele>
        <time>2020-02-15T11:47:31Z</time>
      </trkpt>
      <trkpt lat="42.9186" lon="0.30072">
        <ele>1462</ele>
        <time>2020-02-15T11:47:34Z</time>
      </trkpt>
      <trkpt lat="42.91857" lon="0.30073">
        <ele>1462</ele>
        <time>2020-02-15T11:47:37Z</time>
      </trkpt>
      <trkpt lat="42.9185" lon="0.30074">
        <ele>1461</ele>
        <time>2020-02-15T11:47:42Z</time>
      </trkpt>
      <trkpt lat="42.91848" lon="0.30077">
        <ele>1460</ele>
        <time>2020-02-15T11:47:58Z</time>
      </trkpt>
      <trkpt lat="42.91844" lon="0.30076">
        <ele>1460</ele>
        <time>2020-02-15T11:48:05Z</time>
      </trkpt>
      <trkpt lat="42.9184" lon="0.30077">
        <ele>1459</ele>
        <time>2020-02-15T11:48:07Z</time>
      </trkpt>
      <trkpt lat="42.91837" lon="0.30077">
        <ele>1459</ele>
        <time>2020-02-15T11:48:08Z</time>
      </trkpt>
      <trkpt lat="42.91834" lon="0.30076">
        <ele>1459</ele>
        <time>2020-02-15T11:48:09Z</time>
      </trkpt>
      <trkpt lat="42.91823" lon="0.30078">
        <ele>1459</ele>
        <time>2020-02-15T11:48:15Z</time>
      </trkpt>
      <trkpt lat="42.9182" lon="0.30081">
        <ele>1458</ele>
        <time>2020-02-15T11:48:19Z</time>
      </trkpt>
      <trkpt lat="42.91819" lon="0.30085">
        <ele>1458</ele>
        <time>2020-02-15T11:48:21Z</time>
      </trkpt>
      <trkpt lat="42.91819" lon="0.30089">
        <ele>1458</ele>
        <time>2020-02-15T11:48:35Z</time>
      </trkpt>
      <trkpt lat="42.91816" lon="0.30091">
        <ele>1457</ele>
        <time>2020-02-15T11:48:53Z</time>
      </trkpt>
      <trkpt lat="42.91814" lon="0.30093">
        <ele>1457</ele>
        <time>2020-02-15T11:49:05Z</time>
      </trkpt>
      <trkpt lat="42.9181" lon="0.30093">
        <ele>1457</ele>
        <time>2020-02-15T11:49:10Z</time>
      </trkpt>
      <trkpt lat="42.91808" lon="0.30094">
        <ele>1456</ele>
        <time>2020-02-15T11:49:13Z</time>
      </trkpt>
      <trkpt lat="42.91804" lon="0.30094">
        <ele>1456</ele>
        <time>2020-02-15T11:49:16Z</time>
      </trkpt>
      <trkpt lat="42.91801" lon="0.30094">
        <ele>1456</ele>
        <time>2020-02-15T11:49:19Z</time>
      </trkpt>
      <trkpt lat="42.918" lon="0.30091">
        <ele>1455</ele>
        <time>2020-02-15T11:49:30Z</time>
      </trkpt>
      <trkpt lat="42.91799" lon="0.30086">
        <ele>1455</ele>
        <time>2020-02-15T11:49:41Z</time>
      </trkpt>
      <trkpt lat="42.91796" lon="0.30091">
        <ele>1455</ele>
        <time>2020-02-15T11:49:44Z</time>
      </trkpt>
      <trkpt lat="42.91794" lon="0.30093">
        <ele>1455</ele>
        <time>2020-02-15T11:49:48Z</time>
      </trkpt>
      <trkpt lat="42.91793" lon="0.30097">
        <ele>1455</ele>
        <time>2020-02-15T11:49:52Z</time>
      </trkpt>
      <trkpt lat="42.91792" lon="0.30101">
        <ele>1455</ele>
        <time>2020-02-15T11:49:56Z</time>
      </trkpt>
      <trkpt lat="42.91779" lon="0.30109">
        <ele>1454</ele>
        <time>2020-02-15T11:50:02Z</time>
      </trkpt>
      <trkpt lat="42.91772" lon="0.30109">
        <ele>1454</ele>
        <time>2020-02-15T11:50:05Z</time>
      </trkpt>
      <trkpt lat="42.91751" lon="0.30111">
        <ele>1454</ele>
        <time>2020-02-15T11:50:12Z</time>
      </trkpt>
      <trkpt lat="42.91741" lon="0.30108">
        <ele>1454</ele>
        <time>2020-02-15T11:50:14Z</time>
      </trkpt>
      <trkpt lat="42.91722" lon="0.30109">
        <ele>1454</ele>
        <time>2020-02-15T11:50:20Z</time>
      </trkpt>
      <trkpt lat="42.91718" lon="0.30108">
        <ele>1454</ele>
        <time>2020-02-15T11:50:21Z</time>
      </trkpt>
      <trkpt lat="42.9171" lon="0.30106">
        <ele>1454</ele>
        <time>2020-02-15T11:50:24Z</time>
      </trkpt>
      <trkpt lat="42.91706" lon="0.30105">
        <ele>1454</ele>
        <time>2020-02-15T11:50:25Z</time>
      </trkpt>
      <trkpt lat="42.91703" lon="0.30106">
        <ele>1454</ele>
        <time>2020-02-15T11:50:26Z</time>
      </trkpt>
      <trkpt lat="42.91701" lon="0.30107">
        <ele>1453</ele>
        <time>2020-02-15T11:50:27Z</time>
      </trkpt>
      <trkpt lat="42.9169" lon="0.30105">
        <ele>1453</ele>
        <time>2020-02-15T11:50:33Z</time>
      </trkpt>
      <trkpt lat="42.91682" lon="0.30105">
        <ele>1453</ele>
        <time>2020-02-15T11:50:37Z</time>
      </trkpt>
      <trkpt lat="42.91679" lon="0.30106">
        <ele>1453</ele>
        <time>2020-02-15T11:50:39Z</time>
      </trkpt>
      <trkpt lat="42.91676" lon="0.30109">
        <ele>1453</ele>
        <time>2020-02-15T11:50:41Z</time>
      </trkpt>
      <trkpt lat="42.91672" lon="0.30109">
        <ele>1453</ele>
        <time>2020-02-15T11:50:43Z</time>
      </trkpt>
      <trkpt lat="42.91669" lon="0.30107">
        <ele>1453</ele>
        <time>2020-02-15T11:50:45Z</time>
      </trkpt>
      <trkpt lat="42.91666" lon="0.30105">
        <ele>1453</ele>
        <time>2020-02-15T11:50:47Z</time>
      </trkpt>
      <trkpt lat="42.91651" lon="0.30097">
        <ele>1453</ele>
        <time>2020-02-15T11:50:55Z</time>
      </trkpt>
      <trkpt lat="42.9162" lon="0.30092">
        <ele>1453</ele>
        <time>2020-02-15T11:51:08Z</time>
      </trkpt>
      <trkpt lat="42.91606" lon="0.30088">
        <ele>1453</ele>
        <time>2020-02-15T11:51:13Z</time>
      </trkpt>
      <trkpt lat="42.91589" lon="0.30091">
        <ele>1453</ele>
        <time>2020-02-15T11:51:21Z</time>
      </trkpt>
      <trkpt lat="42.9157" lon="0.3008">
        <ele>1453</ele>
        <time>2020-02-15T11:51:31Z</time>
      </trkpt>
      <trkpt lat="42.91567" lon="0.30076">
        <ele>1453</ele>
        <time>2020-02-15T11:51:34Z</time>
      </trkpt>
      <trkpt lat="42.91565" lon="0.30071">
        <ele>1453</ele>
        <time>2020-02-15T11:51:36Z</time>
      </trkpt>
      <trkpt lat="42.91565" lon="0.30065">
        <ele>1453</ele>
        <time>2020-02-15T11:51:38Z</time>
      </trkpt>
      <trkpt lat="42.91566" lon="0.30062">
        <ele>1453</ele>
        <time>2020-02-15T11:51:40Z</time>
      </trkpt>
      <trkpt lat="42.91565" lon="0.30053">
        <ele>1453</ele>
        <time>2020-02-15T11:51:44Z</time>
      </trkpt>
      <trkpt lat="42.91564" lon="0.30047">
        <ele>1453</ele>
        <time>2020-02-15T11:51:47Z</time>
      </trkpt>
      <trkpt lat="42.91564" lon="0.30024">
        <ele>1453</ele>
        <time>2020-02-15T11:51:54Z</time>
      </trkpt>
      <trkpt lat="42.91564" lon="0.30016">
        <ele>1453</ele>
        <time>2020-02-15T11:51:56Z</time>
      </trkpt>
      <trkpt lat="42.91566" lon="0.30005">
        <ele>1453</ele>
        <time>2020-02-15T11:51:59Z</time>
      </trkpt>
      <trkpt lat="42.91566" lon="0.30001">
        <ele>1453</ele>
        <time>2020-02-15T11:52:00Z</time>
      </trkpt>
      <trkpt lat="42.91571" lon="0.29982">
        <ele>1453</ele>
        <time>2020-02-15T11:52:06Z</time>
      </trkpt>
      <trkpt lat="42.91572" lon="0.29977">
        <ele>1453</ele>
        <time>2020-02-15T11:52:08Z</time>
      </trkpt>
      <trkpt lat="42.91574" lon="0.29973">
        <ele>1453</ele>
        <time>2020-02-15T11:52:10Z</time>
      </trkpt>
      <trkpt lat="42.91576" lon="0.29966">
        <ele>1453</ele>
        <time>2020-02-15T11:52:12Z</time>
      </trkpt>
      <trkpt lat="42.91583" lon="0.29951">
        <ele>1453</ele>
        <time>2020-02-15T11:52:16Z</time>
      </trkpt>
      <trkpt lat="42.91585" lon="0.29948">
        <ele>1453</ele>
        <time>2020-02-15T11:52:17Z</time>
      </trkpt>
      <trkpt lat="42.91589" lon="0.2994">
        <ele>1453</ele>
        <time>2020-02-15T11:52:19Z</time>
      </trkpt>
      <trkpt lat="42.916" lon="0.29916">
        <ele>1453</ele>
        <time>2020-02-15T11:52:27Z</time>
      </trkpt>
      <trkpt lat="42.91603" lon="0.29908">
        <ele>1453</ele>
        <time>2020-02-15T11:52:29Z</time>
      </trkpt>
      <trkpt lat="42.91605" lon="0.29904">
        <ele>1453</ele>
        <time>2020-02-15T11:52:30Z</time>
      </trkpt>
      <trkpt lat="42.91608" lon="0.299">
        <ele>1453</ele>
        <time>2020-02-15T11:52:31Z</time>
      </trkpt>
      <trkpt lat="42.91612" lon="0.29894">
        <ele>1453</ele>
        <time>2020-02-15T11:52:34Z</time>
      </trkpt>
      <trkpt lat="42.91636" lon="0.29853">
        <ele>1452</ele>
        <time>2020-02-15T11:52:48Z</time>
      </trkpt>
      <trkpt lat="42.9164" lon="0.2984">
        <ele>1452</ele>
        <time>2020-02-15T11:52:50Z</time>
      </trkpt>
      <trkpt lat="42.91646" lon="0.29821">
        <ele>1452</ele>
        <time>2020-02-15T11:52:55Z</time>
      </trkpt>
      <trkpt lat="42.91649" lon="0.29813">
        <ele>1452</ele>
        <time>2020-02-15T11:52:57Z</time>
      </trkpt>
      <trkpt lat="42.91654" lon="0.29803">
        <ele>1452</ele>
        <time>2020-02-15T11:53:00Z</time>
      </trkpt>
      <trkpt lat="42.91656" lon="0.29799">
        <ele>1452</ele>
        <time>2020-02-15T11:53:01Z</time>
      </trkpt>
      <trkpt lat="42.91657" lon="0.29795">
        <ele>1451</ele>
        <time>2020-02-15T11:53:02Z</time>
      </trkpt>
      <trkpt lat="42.91675" lon="0.2975">
        <ele>1451</ele>
        <time>2020-02-15T11:53:14Z</time>
      </trkpt>
      <trkpt lat="42.91676" lon="0.29746">
        <ele>1451</ele>
        <time>2020-02-15T11:53:15Z</time>
      </trkpt>
      <trkpt lat="42.91684" lon="0.29729">
        <ele>1451</ele>
        <time>2020-02-15T11:53:19Z</time>
      </trkpt>
      <trkpt lat="42.91686" lon="0.29724">
        <ele>1451</ele>
        <time>2020-02-15T11:53:20Z</time>
      </trkpt>
      <trkpt lat="42.91707" lon="0.29684">
        <ele>1450</ele>
        <time>2020-02-15T11:53:32Z</time>
      </trkpt>
      <trkpt lat="42.91711" lon="0.29677">
        <ele>1450</ele>
        <time>2020-02-15T11:53:34Z</time>
      </trkpt>
      <trkpt lat="42.91713" lon="0.29671">
        <ele>1450</ele>
        <time>2020-02-15T11:53:36Z</time>
      </trkpt>
      <trkpt lat="42.91721" lon="0.29655">
        <ele>1449</ele>
        <time>2020-02-15T11:53:40Z</time>
      </trkpt>
      <trkpt lat="42.91726" lon="0.29647">
        <ele>1449</ele>
        <time>2020-02-15T11:53:42Z</time>
      </trkpt>
      <trkpt lat="42.91734" lon="0.2963">
        <ele>1449</ele>
        <time>2020-02-15T11:53:46Z</time>
      </trkpt>
      <trkpt lat="42.91736" lon="0.29626">
        <ele>1449</ele>
        <time>2020-02-15T11:53:47Z</time>
      </trkpt>
      <trkpt lat="42.91738" lon="0.29623">
        <ele>1449</ele>
        <time>2020-02-15T11:53:48Z</time>
      </trkpt>
      <trkpt lat="42.9174" lon="0.29613">
        <ele>1449</ele>
        <time>2020-02-15T11:53:50Z</time>
      </trkpt>
      <trkpt lat="42.91743" lon="0.29601">
        <ele>1449</ele>
        <time>2020-02-15T11:53:54Z</time>
      </trkpt>
      <trkpt lat="42.91745" lon="0.2958">
        <ele>1448</ele>
        <time>2020-02-15T11:54:01Z</time>
      </trkpt>
      <trkpt lat="42.91743" lon="0.29573">
        <ele>1448</ele>
        <time>2020-02-15T11:54:03Z</time>
      </trkpt>
      <trkpt lat="42.91739" lon="0.29564">
        <ele>1448</ele>
        <time>2020-02-15T11:54:05Z</time>
      </trkpt>
      <trkpt lat="42.91731" lon="0.2956">
        <ele>1447</ele>
        <time>2020-02-15T11:54:07Z</time>
      </trkpt>
      <trkpt lat="42.91718" lon="0.29545">
        <ele>1446</ele>
        <time>2020-02-15T11:54:11Z</time>
      </trkpt>
      <trkpt lat="42.91695" lon="0.2953">
        <ele>1444</ele>
        <time>2020-02-15T11:54:18Z</time>
      </trkpt>
      <trkpt lat="42.9169" lon="0.29528">
        <ele>1443</ele>
        <time>2020-02-15T11:54:20Z</time>
      </trkpt>
      <trkpt lat="42.91686" lon="0.29526">
        <ele>1442</ele>
        <time>2020-02-15T11:54:22Z</time>
      </trkpt>
      <trkpt lat="42.91683" lon="0.29523">
        <ele>1442</ele>
        <time>2020-02-15T11:54:24Z</time>
      </trkpt>
      <trkpt lat="42.91679" lon="0.29522">
        <ele>1438</ele>
        <time>2020-02-15T11:54:37Z</time>
      </trkpt>
      <trkpt lat="42.91677" lon="0.29522">
        <ele>1434</ele>
        <time>2020-02-15T11:55:22Z</time>
      </trkpt>
      <trkpt lat="42.91662" lon="0.29527">
        <ele>1421</ele>
        <time>2020-02-15T11:55:44Z</time>
      </trkpt>
      <trkpt lat="42.91656" lon="0.29529">
        <ele>1420</ele>
        <time>2020-02-15T11:55:46Z</time>
      </trkpt>
      <trkpt lat="42.91639" lon="0.29533">
        <ele>1417</ele>
        <time>2020-02-15T11:55:52Z</time>
      </trkpt>
      <trkpt lat="42.91612" lon="0.29544">
        <ele>1414</ele>
        <time>2020-02-15T11:56:01Z</time>
      </trkpt>
      <trkpt lat="42.91605" lon="0.29548">
        <ele>1413</ele>
        <time>2020-02-15T11:56:03Z</time>
      </trkpt>
      <trkpt lat="42.91602" lon="0.29548">
        <ele>1413</ele>
        <time>2020-02-15T11:56:04Z</time>
      </trkpt>
      <trkpt lat="42.91597" lon="0.29552">
        <ele>1413</ele>
        <time>2020-02-15T11:56:06Z</time>
      </trkpt>
      <trkpt lat="42.91517" lon="0.29611">
        <ele>1407</ele>
        <time>2020-02-15T11:56:34Z</time>
      </trkpt>
      <trkpt lat="42.91511" lon="0.29616">
        <ele>1406</ele>
        <time>2020-02-15T11:56:36Z</time>
      </trkpt>
      <trkpt lat="42.91509" lon="0.29618">
        <ele>1406</ele>
        <time>2020-02-15T11:56:37Z</time>
      </trkpt>
      <trkpt lat="42.91453" lon="0.29656">
        <ele>1405</ele>
        <time>2020-02-15T11:56:55Z</time>
      </trkpt>
      <trkpt lat="42.91446" lon="0.29666">
        <ele>1404</ele>
        <time>2020-02-15T11:56:59Z</time>
      </trkpt>
      <trkpt lat="42.9144" lon="0.29673">
        <ele>1404</ele>
        <time>2020-02-15T11:57:03Z</time>
      </trkpt>
      <trkpt lat="42.91435" lon="0.29676">
        <ele>1404</ele>
        <time>2020-02-15T11:57:05Z</time>
      </trkpt>
      <trkpt lat="42.91403" lon="0.2971">
        <ele>1404</ele>
        <time>2020-02-15T11:57:23Z</time>
      </trkpt>
      <trkpt lat="42.91361" lon="0.29747">
        <ele>1405</ele>
        <time>2020-02-15T11:57:33Z</time>
      </trkpt>
      <trkpt lat="42.9134" lon="0.29768">
        <ele>1406</ele>
        <time>2020-02-15T11:57:41Z</time>
      </trkpt>
      <trkpt lat="42.91337" lon="0.29774">
        <ele>1406</ele>
        <time>2020-02-15T11:57:43Z</time>
      </trkpt>
      <trkpt lat="42.91335" lon="0.29778">
        <ele>1406</ele>
        <time>2020-02-15T11:57:45Z</time>
      </trkpt>
      <trkpt lat="42.91332" lon="0.2978">
        <ele>1406</ele>
        <time>2020-02-15T11:57:47Z</time>
      </trkpt>
      <trkpt lat="42.91329" lon="0.29782">
        <ele>1406</ele>
        <time>2020-02-15T11:57:49Z</time>
      </trkpt>
      <trkpt lat="42.91326" lon="0.29781">
        <ele>1406</ele>
        <time>2020-02-15T11:57:50Z</time>
      </trkpt>
      <trkpt lat="42.91327" lon="0.29783">
        <ele>1406</ele>
        <time>2020-02-15T11:58:07Z</time>
      </trkpt>
      <trkpt lat="42.91324" lon="0.29785">
        <ele>1406</ele>
        <time>2020-02-15T11:58:18Z</time>
      </trkpt>
      <trkpt lat="42.91317" lon="0.29779">
        <ele>1407</ele>
        <time>2020-02-15T11:58:21Z</time>
      </trkpt>
      <trkpt lat="42.91314" lon="0.29777">
        <ele>1407</ele>
        <time>2020-02-15T11:58:22Z</time>
      </trkpt>
      <trkpt lat="42.91307" lon="0.29776">
        <ele>1407</ele>
        <time>2020-02-15T11:58:24Z</time>
      </trkpt>
      <trkpt lat="42.91297" lon="0.29778">
        <ele>1407</ele>
        <time>2020-02-15T11:58:27Z</time>
      </trkpt>
      <trkpt lat="42.91287" lon="0.29777">
        <ele>1407</ele>
        <time>2020-02-15T11:58:30Z</time>
      </trkpt>
      <trkpt lat="42.91278" lon="0.29774">
        <ele>1407</ele>
        <time>2020-02-15T11:58:33Z</time>
      </trkpt>
      <trkpt lat="42.91262" lon="0.29753">
        <ele>1407</ele>
        <time>2020-02-15T11:58:42Z</time>
      </trkpt>
      <trkpt lat="42.91249" lon="0.29731">
        <ele>1408</ele>
        <time>2020-02-15T11:58:50Z</time>
      </trkpt>
      <trkpt lat="42.91242" lon="0.29722">
        <ele>1408</ele>
        <time>2020-02-15T11:58:53Z</time>
      </trkpt>
      <trkpt lat="42.91233" lon="0.29716">
        <ele>1408</ele>
        <time>2020-02-15T11:58:56Z</time>
      </trkpt>
      <trkpt lat="42.9123" lon="0.29715">
        <ele>1408</ele>
        <time>2020-02-15T11:58:57Z</time>
      </trkpt>
      <trkpt lat="42.91201" lon="0.29719">
        <ele>1408</ele>
        <time>2020-02-15T11:59:07Z</time>
      </trkpt>
      <trkpt lat="42.91194" lon="0.29723">
        <ele>1408</ele>
        <time>2020-02-15T11:59:10Z</time>
      </trkpt>
      <trkpt lat="42.91174" lon="0.2973">
        <ele>1409</ele>
        <time>2020-02-15T11:59:16Z</time>
      </trkpt>
      <trkpt lat="42.91165" lon="0.29734">
        <ele>1409</ele>
        <time>2020-02-15T11:59:19Z</time>
      </trkpt>
      <trkpt lat="42.91099" lon="0.29751">
        <ele>1410</ele>
        <time>2020-02-15T11:59:40Z</time>
      </trkpt>
      <trkpt lat="42.91083" lon="0.29751">
        <ele>1410</ele>
        <time>2020-02-15T11:59:45Z</time>
      </trkpt>
      <trkpt lat="42.91069" lon="0.29757">
        <ele>1411</ele>
        <time>2020-02-15T11:59:51Z</time>
      </trkpt>
      <trkpt lat="42.9107" lon="0.29759">
        <ele>1411</ele>
        <time>2020-02-15T12:00:35Z</time>
      </trkpt>
      <trkpt lat="42.91072" lon="0.29762">
        <ele>1412</ele>
        <time>2020-02-15T12:02:12Z</time>
      </trkpt>
      <trkpt lat="42.91074" lon="0.29763">
        <ele>1415</ele>
        <time>2020-02-15T12:03:22Z</time>
      </trkpt>
      <trkpt lat="42.91074" lon="0.29762">
        <ele>1421</ele>
        <time>2020-02-15T12:08:45Z</time>
      </trkpt>
      <trkpt lat="42.91076" lon="0.29764">
        <ele>1423</ele>
        <time>2020-02-15T12:12:29Z</time>
      </trkpt>
      <trkpt lat="42.91075" lon="0.29764">
        <ele>1424</ele>
        <time>2020-02-15T12:13:35Z</time>
      </trkpt>
      <trkpt lat="42.91073" lon="0.29763">
        <ele>1424</ele>
        <time>2020-02-15T12:13:36Z</time>
      </trkpt>
      <trkpt lat="42.9107" lon="0.29761">
        <ele>1426</ele>
        <time>2020-02-15T12:13:38Z</time>
      </trkpt>
      <trkpt lat="42.91069" lon="0.2976">
        <ele>1426</ele>
        <time>2020-02-15T12:13:39Z</time>
      </trkpt>
      <trkpt lat="42.91064" lon="0.2976">
        <ele>1427</ele>
        <time>2020-02-15T12:13:41Z</time>
      </trkpt>
      <trkpt lat="42.91062" lon="0.29759">
        <ele>1427</ele>
        <time>2020-02-15T12:13:42Z</time>
      </trkpt>
      <trkpt lat="42.91048" lon="0.2975">
        <ele>1428</ele>
        <time>2020-02-15T12:13:59Z</time>
      </trkpt>
      <trkpt lat="42.91045" lon="0.29747">
        <ele>1428</ele>
        <time>2020-02-15T12:14:00Z</time>
      </trkpt>
      <trkpt lat="42.9097" lon="0.29601">
        <ele>1432</ele>
        <time>2020-02-15T12:14:30Z</time>
      </trkpt>
      <trkpt lat="42.90899" lon="0.29485">
        <ele>1432</ele>
        <time>2020-02-15T12:14:50Z</time>
      </trkpt>
      <trkpt lat="42.90832" lon="0.29388">
        <ele>1432</ele>
        <time>2020-02-15T12:15:09Z</time>
      </trkpt>
      <trkpt lat="42.90802" lon="0.29334">
        <ele>1431</ele>
        <time>2020-02-15T12:15:16Z</time>
      </trkpt>
      <trkpt lat="42.90708" lon="0.29228">
        <ele>1430</ele>
        <time>2020-02-15T12:15:32Z</time>
      </trkpt>
      <trkpt lat="42.90688" lon="0.29178">
        <ele>1429</ele>
        <time>2020-02-15T12:15:37Z</time>
      </trkpt>
      <trkpt lat="42.90677" lon="0.29132">
        <ele>1425</ele>
        <time>2020-02-15T12:15:42Z</time>
      </trkpt>
      <trkpt lat="42.90662" lon="0.29103">
        <ele>1423</ele>
        <time>2020-02-15T12:15:46Z</time>
      </trkpt>
      <trkpt lat="42.90631" lon="0.29077">
        <ele>1421</ele>
        <time>2020-02-15T12:15:51Z</time>
      </trkpt>
      <trkpt lat="42.90548" lon="0.29018">
        <ele>1417</ele>
        <time>2020-02-15T12:16:02Z</time>
      </trkpt>
      <trkpt lat="42.90535" lon="0.29004">
        <ele>1417</ele>
        <time>2020-02-15T12:16:04Z</time>
      </trkpt>
      <trkpt lat="42.90506" lon="0.28954">
        <ele>1416</ele>
        <time>2020-02-15T12:16:10Z</time>
      </trkpt>
      <trkpt lat="42.905" lon="0.28935">
        <ele>1415</ele>
        <time>2020-02-15T12:16:12Z</time>
      </trkpt>
      <trkpt lat="42.905" lon="0.28866">
        <ele>1413</ele>
        <time>2020-02-15T12:16:19Z</time>
      </trkpt>
      <trkpt lat="42.90503" lon="0.2885">
        <ele>1412</ele>
        <time>2020-02-15T12:16:21Z</time>
      </trkpt>
      <trkpt lat="42.90513" lon="0.28832">
        <ele>1411</ele>
        <time>2020-02-15T12:16:24Z</time>
      </trkpt>
      <trkpt lat="42.90543" lon="0.28804">
        <ele>1410</ele>
        <time>2020-02-15T12:16:39Z</time>
      </trkpt>
      <trkpt lat="42.90554" lon="0.28797">
        <ele>1409</ele>
        <time>2020-02-15T12:16:45Z</time>
      </trkpt>
      <trkpt lat="42.90577" lon="0.28795">
        <ele>1407</ele>
        <time>2020-02-15T12:16:53Z</time>
      </trkpt>
      <trkpt lat="42.90589" lon="0.28798">
        <ele>1406</ele>
        <time>2020-02-15T12:16:57Z</time>
      </trkpt>
      <trkpt lat="42.90667" lon="0.28809">
        <ele>1393</ele>
        <time>2020-02-15T12:17:19Z</time>
      </trkpt>
      <trkpt lat="42.90676" lon="0.28812">
        <ele>1392</ele>
        <time>2020-02-15T12:17:22Z</time>
      </trkpt>
      <trkpt lat="42.90751" lon="0.28828">
        <ele>1385</ele>
        <time>2020-02-15T12:17:42Z</time>
      </trkpt>
      <trkpt lat="42.90822" lon="0.28853">
        <ele>1382</ele>
        <time>2020-02-15T12:18:02Z</time>
      </trkpt>
      <trkpt lat="42.90825" lon="0.28855">
        <ele>1382</ele>
        <time>2020-02-15T12:18:03Z</time>
      </trkpt>
      <trkpt lat="42.90829" lon="0.2886">
        <ele>1382</ele>
        <time>2020-02-15T12:18:05Z</time>
      </trkpt>
      <trkpt lat="42.90917" lon="0.28941">
        <ele>1379</ele>
        <time>2020-02-15T12:18:35Z</time>
      </trkpt>
      <trkpt lat="42.90972" lon="0.28989">
        <ele>1378</ele>
        <time>2020-02-15T12:18:57Z</time>
      </trkpt>
      <trkpt lat="42.90986" lon="0.28998">
        <ele>1378</ele>
        <time>2020-02-15T12:19:02Z</time>
      </trkpt>
      <trkpt lat="42.90994" lon="0.29005">
        <ele>1378</ele>
        <time>2020-02-15T12:19:06Z</time>
      </trkpt>
      <trkpt lat="42.91" lon="0.29006">
        <ele>1378</ele>
        <time>2020-02-15T12:19:08Z</time>
      </trkpt>
      <trkpt lat="42.91026" lon="0.28999">
        <ele>1377</ele>
        <time>2020-02-15T12:19:16Z</time>
      </trkpt>
      <trkpt lat="42.91037" lon="0.28989">
        <ele>1377</ele>
        <time>2020-02-15T12:19:20Z</time>
      </trkpt>
      <trkpt lat="42.91047" lon="0.28985">
        <ele>1377</ele>
        <time>2020-02-15T12:19:24Z</time>
      </trkpt>
      <trkpt lat="42.91052" lon="0.28985">
        <ele>1377</ele>
        <time>2020-02-15T12:19:26Z</time>
      </trkpt>
      <trkpt lat="42.91088" lon="0.29001">
        <ele>1374</ele>
        <time>2020-02-15T12:19:37Z</time>
      </trkpt>
      <trkpt lat="42.91119" lon="0.29002">
        <ele>1372</ele>
        <time>2020-02-15T12:19:45Z</time>
      </trkpt>
      <trkpt lat="42.91125" lon="0.29">
        <ele>1372</ele>
        <time>2020-02-15T12:19:47Z</time>
      </trkpt>
      <trkpt lat="42.91149" lon="0.28998">
        <ele>1371</ele>
        <time>2020-02-15T12:19:54Z</time>
      </trkpt>
      <trkpt lat="42.91157" lon="0.28999">
        <ele>1371</ele>
        <time>2020-02-15T12:19:56Z</time>
      </trkpt>
      <trkpt lat="42.91163" lon="0.28999">
        <ele>1370</ele>
        <time>2020-02-15T12:19:58Z</time>
      </trkpt>
      <trkpt lat="42.91192" lon="0.29007">
        <ele>1368</ele>
        <time>2020-02-15T12:20:06Z</time>
      </trkpt>
      <trkpt lat="42.91197" lon="0.2901">
        <ele>1368</ele>
        <time>2020-02-15T12:20:08Z</time>
      </trkpt>
      <trkpt lat="42.91292" lon="0.29042">
        <ele>1365</ele>
        <time>2020-02-15T12:20:38Z</time>
      </trkpt>
      <trkpt lat="42.91359" lon="0.29068">
        <ele>1362</ele>
        <time>2020-02-15T12:21:00Z</time>
      </trkpt>
      <trkpt lat="42.91369" lon="0.29067">
        <ele>1362</ele>
        <time>2020-02-15T12:21:04Z</time>
      </trkpt>
      <trkpt lat="42.91396" lon="0.29061">
        <ele>1361</ele>
        <time>2020-02-15T12:21:13Z</time>
      </trkpt>
      <trkpt lat="42.91415" lon="0.29051">
        <ele>1360</ele>
        <time>2020-02-15T12:21:22Z</time>
      </trkpt>
      <trkpt lat="42.91421" lon="0.29047">
        <ele>1360</ele>
        <time>2020-02-15T12:21:24Z</time>
      </trkpt>
      <trkpt lat="42.9144" lon="0.29045">
        <ele>1359</ele>
        <time>2020-02-15T12:21:29Z</time>
      </trkpt>
      <trkpt lat="42.9145" lon="0.29047">
        <ele>1359</ele>
        <time>2020-02-15T12:21:33Z</time>
      </trkpt>
      <trkpt lat="42.91454" lon="0.29047">
        <ele>1358</ele>
        <time>2020-02-15T12:21:35Z</time>
      </trkpt>
      <trkpt lat="42.91467" lon="0.2905">
        <ele>1358</ele>
        <time>2020-02-15T12:21:41Z</time>
      </trkpt>
      <trkpt lat="42.91488" lon="0.29051">
        <ele>1357</ele>
        <time>2020-02-15T12:21:49Z</time>
      </trkpt>
      <trkpt lat="42.91492" lon="0.29051">
        <ele>1356</ele>
        <time>2020-02-15T12:21:51Z</time>
      </trkpt>
      <trkpt lat="42.91496" lon="0.29052">
        <ele>1356</ele>
        <time>2020-02-15T12:21:54Z</time>
      </trkpt>
      <trkpt lat="42.91501" lon="0.29052">
        <ele>1356</ele>
        <time>2020-02-15T12:22:02Z</time>
      </trkpt>
      <trkpt lat="42.91504" lon="0.29053">
        <ele>1355</ele>
        <time>2020-02-15T12:22:07Z</time>
      </trkpt>
      <trkpt lat="42.91514" lon="0.29053">
        <ele>1354</ele>
        <time>2020-02-15T12:22:14Z</time>
      </trkpt>
      <trkpt lat="42.91518" lon="0.29053">
        <ele>1354</ele>
        <time>2020-02-15T12:22:18Z</time>
      </trkpt>
      <trkpt lat="42.91522" lon="0.29052">
        <ele>1354</ele>
        <time>2020-02-15T12:22:21Z</time>
      </trkpt>
      <trkpt lat="42.91527" lon="0.29052">
        <ele>1353</ele>
        <time>2020-02-15T12:22:26Z</time>
      </trkpt>
      <trkpt lat="42.91531" lon="0.29053">
        <ele>1353</ele>
        <time>2020-02-15T12:22:28Z</time>
      </trkpt>
      <trkpt lat="42.9154" lon="0.29054">
        <ele>1352</ele>
        <time>2020-02-15T12:22:33Z</time>
      </trkpt>
      <trkpt lat="42.91544" lon="0.29054">
        <ele>1352</ele>
        <time>2020-02-15T12:22:36Z</time>
      </trkpt>
      <trkpt lat="42.91549" lon="0.29055">
        <ele>1351</ele>
        <time>2020-02-15T12:22:39Z</time>
      </trkpt>
      <trkpt lat="42.91553" lon="0.29056">
        <ele>1351</ele>
        <time>2020-02-15T12:22:44Z</time>
      </trkpt>
      <trkpt lat="42.91558" lon="0.29058">
        <ele>1351</ele>
        <time>2020-02-15T12:22:50Z</time>
      </trkpt>
      <trkpt lat="42.91562" lon="0.29059">
        <ele>1350</ele>
        <time>2020-02-15T12:22:55Z</time>
      </trkpt>
      <trkpt lat="42.91566" lon="0.29059">
        <ele>1350</ele>
        <time>2020-02-15T12:22:59Z</time>
      </trkpt>
      <trkpt lat="42.9157" lon="0.29061">
        <ele>1349</ele>
        <time>2020-02-15T12:23:03Z</time>
      </trkpt>
      <trkpt lat="42.91588" lon="0.29062">
        <ele>1348</ele>
        <time>2020-02-15T12:23:21Z</time>
      </trkpt>
      <trkpt lat="42.91592" lon="0.29065">
        <ele>1347</ele>
        <time>2020-02-15T12:23:24Z</time>
      </trkpt>
      <trkpt lat="42.91596" lon="0.29062">
        <ele>1347</ele>
        <time>2020-02-15T12:23:27Z</time>
      </trkpt>
      <trkpt lat="42.91601" lon="0.29061">
        <ele>1347</ele>
        <time>2020-02-15T12:23:32Z</time>
      </trkpt>
      <trkpt lat="42.91612" lon="0.29066">
        <ele>1346</ele>
        <time>2020-02-15T12:23:46Z</time>
      </trkpt>
      <trkpt lat="42.91615" lon="0.29066">
        <ele>1345</ele>
        <time>2020-02-15T12:23:52Z</time>
      </trkpt>
      <trkpt lat="42.91623" lon="0.29067">
        <ele>1344</ele>
        <time>2020-02-15T12:24:00Z</time>
      </trkpt>
      <trkpt lat="42.91631" lon="0.2907">
        <ele>1344</ele>
        <time>2020-02-15T12:24:06Z</time>
      </trkpt>
      <trkpt lat="42.91647" lon="0.29083">
        <ele>1343</ele>
        <time>2020-02-15T12:24:14Z</time>
      </trkpt>
      <trkpt lat="42.91665" lon="0.29089">
        <ele>1343</ele>
        <time>2020-02-15T12:24:22Z</time>
      </trkpt>
      <trkpt lat="42.91683" lon="0.29098">
        <ele>1342</ele>
        <time>2020-02-15T12:24:31Z</time>
      </trkpt>
      <trkpt lat="42.91687" lon="0.29101">
        <ele>1342</ele>
        <time>2020-02-15T12:24:33Z</time>
      </trkpt>
      <trkpt lat="42.91697" lon="0.29103">
        <ele>1341</ele>
        <time>2020-02-15T12:24:37Z</time>
      </trkpt>
      <trkpt lat="42.917" lon="0.29104">
        <ele>1341</ele>
        <time>2020-02-15T12:24:38Z</time>
      </trkpt>
      <trkpt lat="42.91707" lon="0.29105">
        <ele>1341</ele>
        <time>2020-02-15T12:24:40Z</time>
      </trkpt>
      <trkpt lat="42.91714" lon="0.29111">
        <ele>1341</ele>
        <time>2020-02-15T12:24:42Z</time>
      </trkpt>
      <trkpt lat="42.91729" lon="0.29121">
        <ele>1341</ele>
        <time>2020-02-15T12:24:46Z</time>
      </trkpt>
      <trkpt lat="42.91734" lon="0.29125">
        <ele>1340</ele>
        <time>2020-02-15T12:24:48Z</time>
      </trkpt>
      <trkpt lat="42.91757" lon="0.29141">
        <ele>1339</ele>
        <time>2020-02-15T12:24:56Z</time>
      </trkpt>
      <trkpt lat="42.91838" lon="0.29208">
        <ele>1327</ele>
        <time>2020-02-15T12:25:26Z</time>
      </trkpt>
      <trkpt lat="42.9185" lon="0.29217">
        <ele>1325</ele>
        <time>2020-02-15T12:25:34Z</time>
      </trkpt>
      <trkpt lat="42.91856" lon="0.2922">
        <ele>1324</ele>
        <time>2020-02-15T12:25:36Z</time>
      </trkpt>
      <trkpt lat="42.91859" lon="0.29223">
        <ele>1323</ele>
        <time>2020-02-15T12:25:37Z</time>
      </trkpt>
      <trkpt lat="42.9187" lon="0.29233">
        <ele>1322</ele>
        <time>2020-02-15T12:25:41Z</time>
      </trkpt>
      <trkpt lat="42.91905" lon="0.29249">
        <ele>1316</ele>
        <time>2020-02-15T12:26:03Z</time>
      </trkpt>
      <trkpt lat="42.9191" lon="0.29251">
        <ele>1316</ele>
        <time>2020-02-15T12:26:05Z</time>
      </trkpt>
      <trkpt lat="42.91914" lon="0.29254">
        <ele>1315</ele>
        <time>2020-02-15T12:26:07Z</time>
      </trkpt>
      <trkpt lat="42.91919" lon="0.29255">
        <ele>1315</ele>
        <time>2020-02-15T12:26:09Z</time>
      </trkpt>
      <trkpt lat="42.9194" lon="0.2926">
        <ele>1313</ele>
        <time>2020-02-15T12:26:36Z</time>
      </trkpt>
      <trkpt lat="42.91948" lon="0.29255">
        <ele>1312</ele>
        <time>2020-02-15T12:26:40Z</time>
      </trkpt>
      <trkpt lat="42.91951" lon="0.29252">
        <ele>1311</ele>
        <time>2020-02-15T12:26:43Z</time>
      </trkpt>
      <trkpt lat="42.91954" lon="0.29248">
        <ele>1311</ele>
        <time>2020-02-15T12:26:46Z</time>
      </trkpt>
      <trkpt lat="42.91957" lon="0.29246">
        <ele>1310</ele>
        <time>2020-02-15T12:26:52Z</time>
      </trkpt>
      <trkpt lat="42.91965" lon="0.29251">
        <ele>1309</ele>
        <time>2020-02-15T12:27:00Z</time>
      </trkpt>
      <trkpt lat="42.9197" lon="0.29252">
        <ele>1308</ele>
        <time>2020-02-15T12:27:02Z</time>
      </trkpt>
      <trkpt lat="42.91978" lon="0.29249">
        <ele>1308</ele>
        <time>2020-02-15T12:27:06Z</time>
      </trkpt>
      <trkpt lat="42.91987" lon="0.29246">
        <ele>1307</ele>
        <time>2020-02-15T12:27:10Z</time>
      </trkpt>
      <trkpt lat="42.91997" lon="0.29243">
        <ele>1306</ele>
        <time>2020-02-15T12:27:14Z</time>
      </trkpt>
      <trkpt lat="42.92015" lon="0.29242">
        <ele>1305</ele>
        <time>2020-02-15T12:27:20Z</time>
      </trkpt>
      <trkpt lat="42.92041" lon="0.29237">
        <ele>1304</ele>
        <time>2020-02-15T12:27:29Z</time>
      </trkpt>
      <trkpt lat="42.92055" lon="0.29239">
        <ele>1303</ele>
        <time>2020-02-15T12:27:35Z</time>
      </trkpt>
      <trkpt lat="42.9206" lon="0.29238">
        <ele>1302</ele>
        <time>2020-02-15T12:27:37Z</time>
      </trkpt>
      <trkpt lat="42.9208" lon="0.29235">
        <ele>1302</ele>
        <time>2020-02-15T12:27:43Z</time>
      </trkpt>
      <trkpt lat="42.92091" lon="0.29229">
        <ele>1301</ele>
        <time>2020-02-15T12:27:47Z</time>
      </trkpt>
      <trkpt lat="42.92094" lon="0.29227">
        <ele>1301</ele>
        <time>2020-02-15T12:27:48Z</time>
      </trkpt>
      <trkpt lat="42.92124" lon="0.29238">
        <ele>1299</ele>
        <time>2020-02-15T12:27:57Z</time>
      </trkpt>
      <trkpt lat="42.92131" lon="0.2924">
        <ele>1298</ele>
        <time>2020-02-15T12:28:00Z</time>
      </trkpt>
      <trkpt lat="42.92145" lon="0.29245">
        <ele>1297</ele>
        <time>2020-02-15T12:28:04Z</time>
      </trkpt>
      <trkpt lat="42.92147" lon="0.29246">
        <ele>1297</ele>
        <time>2020-02-15T12:28:05Z</time>
      </trkpt>
      <trkpt lat="42.92205" lon="0.29246">
        <ele>1293</ele>
        <time>2020-02-15T12:28:21Z</time>
      </trkpt>
      <trkpt lat="42.92216" lon="0.29242">
        <ele>1293</ele>
        <time>2020-02-15T12:28:25Z</time>
      </trkpt>
      <trkpt lat="42.92232" lon="0.29236">
        <ele>1290</ele>
        <time>2020-02-15T12:28:41Z</time>
      </trkpt>
      <trkpt lat="42.92234" lon="0.29237">
        <ele>1290</ele>
        <time>2020-02-15T12:28:43Z</time>
      </trkpt>
      <trkpt lat="42.92235" lon="0.29239">
        <ele>1289</ele>
        <time>2020-02-15T12:28:47Z</time>
      </trkpt>
      <trkpt lat="42.9225" lon="0.2924">
        <ele>1287</ele>
        <time>2020-02-15T12:28:56Z</time>
      </trkpt>
      <trkpt lat="42.92256" lon="0.29244">
        <ele>1287</ele>
        <time>2020-02-15T12:28:58Z</time>
      </trkpt>
      <trkpt lat="42.92269" lon="0.29243">
        <ele>1286</ele>
        <time>2020-02-15T12:29:03Z</time>
      </trkpt>
      <trkpt lat="42.92277" lon="0.29243">
        <ele>1286</ele>
        <time>2020-02-15T12:29:07Z</time>
      </trkpt>
      <trkpt lat="42.92291" lon="0.29246">
        <ele>1285</ele>
        <time>2020-02-15T12:29:12Z</time>
      </trkpt>
      <trkpt lat="42.92294" lon="0.29247">
        <ele>1284</ele>
        <time>2020-02-15T12:29:13Z</time>
      </trkpt>
      <trkpt lat="42.92297" lon="0.29248">
        <ele>1284</ele>
        <time>2020-02-15T12:29:14Z</time>
      </trkpt>
      <trkpt lat="42.92316" lon="0.29247">
        <ele>1284</ele>
        <time>2020-02-15T12:29:19Z</time>
      </trkpt>
      <trkpt lat="42.92327" lon="0.2925">
        <ele>1283</ele>
        <time>2020-02-15T12:29:23Z</time>
      </trkpt>
      <trkpt lat="42.92356" lon="0.29248">
        <ele>1282</ele>
        <time>2020-02-15T12:29:31Z</time>
      </trkpt>
      <trkpt lat="42.92367" lon="0.29245">
        <ele>1281</ele>
        <time>2020-02-15T12:29:35Z</time>
      </trkpt>
      <trkpt lat="42.92399" lon="0.29241">
        <ele>1280</ele>
        <time>2020-02-15T12:29:45Z</time>
      </trkpt>
      <trkpt lat="42.9241" lon="0.29237">
        <ele>1280</ele>
        <time>2020-02-15T12:29:50Z</time>
      </trkpt>
      <trkpt lat="42.9243" lon="0.29224">
        <ele>1279</ele>
        <time>2020-02-15T12:29:58Z</time>
      </trkpt>
      <trkpt lat="42.92433" lon="0.29223">
        <ele>1278</ele>
        <time>2020-02-15T12:29:59Z</time>
      </trkpt>
      <trkpt lat="42.92437" lon="0.29222">
        <ele>1278</ele>
        <time>2020-02-15T12:30:01Z</time>
      </trkpt>
      <trkpt lat="42.92443" lon="0.29221">
        <ele>1278</ele>
        <time>2020-02-15T12:30:03Z</time>
      </trkpt>
      <trkpt lat="42.92458" lon="0.29219">
        <ele>1277</ele>
        <time>2020-02-15T12:30:08Z</time>
      </trkpt>
      <trkpt lat="42.92465" lon="0.29216">
        <ele>1277</ele>
        <time>2020-02-15T12:30:10Z</time>
      </trkpt>
      <trkpt lat="42.92494" lon="0.29209">
        <ele>1276</ele>
        <time>2020-02-15T12:30:18Z</time>
      </trkpt>
      <trkpt lat="42.92516" lon="0.292">
        <ele>1274</ele>
        <time>2020-02-15T12:30:23Z</time>
      </trkpt>
      <trkpt lat="42.9254" lon="0.292">
        <ele>1272</ele>
        <time>2020-02-15T12:30:28Z</time>
      </trkpt>
      <trkpt lat="42.92605" lon="0.29213">
        <ele>1269</ele>
        <time>2020-02-15T12:30:42Z</time>
      </trkpt>
      <trkpt lat="42.92628" lon="0.29212">
        <ele>1269</ele>
        <time>2020-02-15T12:30:47Z</time>
      </trkpt>
      <trkpt lat="42.92637" lon="0.2921">
        <ele>1269</ele>
        <time>2020-02-15T12:30:50Z</time>
      </trkpt>
      <trkpt lat="42.92648" lon="0.29209">
        <ele>1269</ele>
        <time>2020-02-15T12:30:54Z</time>
      </trkpt>
      <trkpt lat="42.9266" lon="0.29213">
        <ele>1269</ele>
        <time>2020-02-15T12:30:58Z</time>
      </trkpt>
      <trkpt lat="42.92671" lon="0.29212">
        <ele>1269</ele>
        <time>2020-02-15T12:31:02Z</time>
      </trkpt>
      <trkpt lat="42.92682" lon="0.29215">
        <ele>1269</ele>
        <time>2020-02-15T12:31:06Z</time>
      </trkpt>
      <trkpt lat="42.92712" lon="0.29226">
        <ele>1269</ele>
        <time>2020-02-15T12:31:16Z</time>
      </trkpt>
      <trkpt lat="42.92736" lon="0.2923">
        <ele>1269</ele>
        <time>2020-02-15T12:31:24Z</time>
      </trkpt>
      <trkpt lat="42.92742" lon="0.29232">
        <ele>1269</ele>
        <time>2020-02-15T12:31:26Z</time>
      </trkpt>
      <trkpt lat="42.92776" lon="0.29235">
        <ele>1265</ele>
        <time>2020-02-15T12:31:34Z</time>
      </trkpt>
      <trkpt lat="42.92806" lon="0.29227">
        <ele>1263</ele>
        <time>2020-02-15T12:31:40Z</time>
      </trkpt>
      <trkpt lat="42.92816" lon="0.29223">
        <ele>1262</ele>
        <time>2020-02-15T12:31:43Z</time>
      </trkpt>
      <trkpt lat="42.92824" lon="0.29217">
        <ele>1262</ele>
        <time>2020-02-15T12:31:47Z</time>
      </trkpt>
      <trkpt lat="42.92834" lon="0.29213">
        <ele>1262</ele>
        <time>2020-02-15T12:31:51Z</time>
      </trkpt>
      <trkpt lat="42.92842" lon="0.29205">
        <ele>1261</ele>
        <time>2020-02-15T12:31:55Z</time>
      </trkpt>
      <trkpt lat="42.92895" lon="0.29171">
        <ele>1255</ele>
        <time>2020-02-15T12:32:17Z</time>
      </trkpt>
      <trkpt lat="42.92901" lon="0.29165">
        <ele>1254</ele>
        <time>2020-02-15T12:32:20Z</time>
      </trkpt>
      <trkpt lat="42.92909" lon="0.29159">
        <ele>1252</ele>
        <time>2020-02-15T12:32:24Z</time>
      </trkpt>
      <trkpt lat="42.92922" lon="0.29151">
        <ele>1249</ele>
        <time>2020-02-15T12:32:29Z</time>
      </trkpt>
      <trkpt lat="42.92926" lon="0.2915">
        <ele>1249</ele>
        <time>2020-02-15T12:32:31Z</time>
      </trkpt>
      <trkpt lat="42.92931" lon="0.29153">
        <ele>1248</ele>
        <time>2020-02-15T12:32:33Z</time>
      </trkpt>
      <trkpt lat="42.92936" lon="0.29158">
        <ele>1247</ele>
        <time>2020-02-15T12:32:35Z</time>
      </trkpt>
      <trkpt lat="42.9295" lon="0.29161">
        <ele>1238</ele>
        <time>2020-02-15T12:32:38Z</time>
      </trkpt>
      <trkpt lat="42.92987" lon="0.29153">
        <ele>1224</ele>
        <time>2020-02-15T12:32:46Z</time>
      </trkpt>
      <trkpt lat="42.93001" lon="0.29156">
        <ele>1222</ele>
        <time>2020-02-15T12:32:49Z</time>
      </trkpt>
      <trkpt lat="42.93005" lon="0.29159">
        <ele>1221</ele>
        <time>2020-02-15T12:32:50Z</time>
      </trkpt>
      <trkpt lat="42.9302" lon="0.29181">
        <ele>1218</ele>
        <time>2020-02-15T12:32:54Z</time>
      </trkpt>
      <trkpt lat="42.93041" lon="0.29229">
        <ele>1213</ele>
        <time>2020-02-15T12:33:01Z</time>
      </trkpt>
      <trkpt lat="42.9305" lon="0.29243">
        <ele>1211</ele>
        <time>2020-02-15T12:33:04Z</time>
      </trkpt>
      <trkpt lat="42.93058" lon="0.29253">
        <ele>1210</ele>
        <time>2020-02-15T12:33:06Z</time>
      </trkpt>
      <trkpt lat="42.93132" lon="0.29287">
        <ele>1205</ele>
        <time>2020-02-15T12:33:20Z</time>
      </trkpt>
      <trkpt lat="42.93153" lon="0.29291">
        <ele>1204</ele>
        <time>2020-02-15T12:33:23Z</time>
      </trkpt>
      <trkpt lat="42.93274" lon="0.29279">
        <ele>1194</ele>
        <time>2020-02-15T12:33:42Z</time>
      </trkpt>
      <trkpt lat="42.93297" lon="0.29274">
        <ele>1192</ele>
        <time>2020-02-15T12:33:48Z</time>
      </trkpt>
      <trkpt lat="42.93301" lon="0.29274">
        <ele>1192</ele>
        <time>2020-02-15T12:33:51Z</time>
      </trkpt>
      <trkpt lat="42.93305" lon="0.29274">
        <ele>1192</ele>
        <time>2020-02-15T12:33:53Z</time>
      </trkpt>
      <trkpt lat="42.93308" lon="0.29278">
        <ele>1192</ele>
        <time>2020-02-15T12:33:55Z</time>
      </trkpt>
      <trkpt lat="42.93305" lon="0.29284">
        <ele>1192</ele>
        <time>2020-02-15T12:33:57Z</time>
      </trkpt>
      <trkpt lat="42.93301" lon="0.29291">
        <ele>1191</ele>
        <time>2020-02-15T12:33:59Z</time>
      </trkpt>
      <trkpt lat="42.93229" lon="0.29348">
        <ele>1179</ele>
        <time>2020-02-15T12:34:19Z</time>
      </trkpt>
      <trkpt lat="42.93227" lon="0.29354">
        <ele>1179</ele>
        <time>2020-02-15T12:34:22Z</time>
      </trkpt>
      <trkpt lat="42.93229" lon="0.29358">
        <ele>1179</ele>
        <time>2020-02-15T12:34:24Z</time>
      </trkpt>
      <trkpt lat="42.9323" lon="0.29361">
        <ele>1179</ele>
        <time>2020-02-15T12:34:25Z</time>
      </trkpt>
      <trkpt lat="42.93242" lon="0.29366">
        <ele>1178</ele>
        <time>2020-02-15T12:34:30Z</time>
      </trkpt>
      <trkpt lat="42.93297" lon="0.29383">
        <ele>1174</ele>
        <time>2020-02-15T12:34:42Z</time>
      </trkpt>
      <trkpt lat="42.9332" lon="0.294">
        <ele>1173</ele>
        <time>2020-02-15T12:34:47Z</time>
      </trkpt>
      <trkpt lat="42.93375" lon="0.29468">
        <ele>1172</ele>
        <time>2020-02-15T12:35:11Z</time>
      </trkpt>
      <trkpt lat="42.93379" lon="0.29467">
        <ele>1171</ele>
        <time>2020-02-15T12:35:26Z</time>
      </trkpt>
      <trkpt lat="42.93385" lon="0.29464">
        <ele>1171</ele>
        <time>2020-02-15T12:35:28Z</time>
      </trkpt>
      <trkpt lat="42.93388" lon="0.29462">
        <ele>1171</ele>
        <time>2020-02-15T12:35:29Z</time>
      </trkpt>
      <trkpt lat="42.93389" lon="0.29456">
        <ele>1171</ele>
        <time>2020-02-15T12:35:31Z</time>
      </trkpt>
      <trkpt lat="42.93395" lon="0.29446">
        <ele>1170</ele>
        <time>2020-02-15T12:35:35Z</time>
      </trkpt>
      <trkpt lat="42.93406" lon="0.29422">
        <ele>1169</ele>
        <time>2020-02-15T12:35:40Z</time>
      </trkpt>
      <trkpt lat="42.93411" lon="0.29413">
        <ele>1168</ele>
        <time>2020-02-15T12:35:42Z</time>
      </trkpt>
      <trkpt lat="42.93416" lon="0.294">
        <ele>1168</ele>
        <time>2020-02-15T12:35:46Z</time>
      </trkpt>
      <trkpt lat="42.9342" lon="0.29394">
        <ele>1167</ele>
        <time>2020-02-15T12:35:48Z</time>
      </trkpt>
      <trkpt lat="42.93427" lon="0.29387">
        <ele>1167</ele>
        <time>2020-02-15T12:36:22Z</time>
      </trkpt>
      <trkpt lat="42.93426" lon="0.29385">
        <ele>1166</ele>
        <time>2020-02-15T12:37:30Z</time>
      </trkpt>
      <trkpt lat="42.93438" lon="0.29347">
        <ele>1164</ele>
        <time>2020-02-15T12:37:45Z</time>
      </trkpt>
      <trkpt lat="42.93455" lon="0.29317">
        <ele>1162</ele>
        <time>2020-02-15T12:37:51Z</time>
      </trkpt>
      <trkpt lat="42.93465" lon="0.29286">
        <ele>1162</ele>
        <time>2020-02-15T12:37:57Z</time>
      </trkpt>
      <trkpt lat="42.93477" lon="0.29214">
        <ele>1161</ele>
        <time>2020-02-15T12:38:09Z</time>
      </trkpt>
      <trkpt lat="42.93481" lon="0.29203">
        <ele>1161</ele>
        <time>2020-02-15T12:38:11Z</time>
      </trkpt>
      <trkpt lat="42.93518" lon="0.2914">
        <ele>1161</ele>
        <time>2020-02-15T12:38:23Z</time>
      </trkpt>
      <trkpt lat="42.93524" lon="0.29131">
        <ele>1161</ele>
        <time>2020-02-15T12:38:25Z</time>
      </trkpt>
      <trkpt lat="42.93527" lon="0.29128">
        <ele>1161</ele>
        <time>2020-02-15T12:38:26Z</time>
      </trkpt>
      <trkpt lat="42.93537" lon="0.2913">
        <ele>1161</ele>
        <time>2020-02-15T12:38:28Z</time>
      </trkpt>
      <trkpt lat="42.93674" lon="0.29246">
        <ele>1158</ele>
        <time>2020-02-15T12:38:52Z</time>
      </trkpt>
      <trkpt lat="42.937" lon="0.29254">
        <ele>1158</ele>
        <time>2020-02-15T12:38:56Z</time>
      </trkpt>
      <trkpt lat="42.9372" lon="0.2925">
        <ele>1157</ele>
        <time>2020-02-15T12:38:59Z</time>
      </trkpt>
      <trkpt lat="42.93738" lon="0.2924">
        <ele>1157</ele>
        <time>2020-02-15T12:39:02Z</time>
      </trkpt>
      <trkpt lat="42.93755" lon="0.29226">
        <ele>1156</ele>
        <time>2020-02-15T12:39:05Z</time>
      </trkpt>
      <trkpt lat="42.93836" lon="0.29137">
        <ele>1153</ele>
        <time>2020-02-15T12:39:19Z</time>
      </trkpt>
      <trkpt lat="42.93841" lon="0.29131">
        <ele>1153</ele>
        <time>2020-02-15T12:39:20Z</time>
      </trkpt>
      <trkpt lat="42.93847" lon="0.29127">
        <ele>1153</ele>
        <time>2020-02-15T12:39:21Z</time>
      </trkpt>
      <trkpt lat="42.93905" lon="0.29135">
        <ele>1152</ele>
        <time>2020-02-15T12:39:32Z</time>
      </trkpt>
      <trkpt lat="42.93953" lon="0.29129">
        <ele>1151</ele>
        <time>2020-02-15T12:39:42Z</time>
      </trkpt>
      <trkpt lat="42.93962" lon="0.29124">
        <ele>1150</ele>
        <time>2020-02-15T12:39:44Z</time>
      </trkpt>
      <trkpt lat="42.93986" lon="0.29096">
        <ele>1149</ele>
        <time>2020-02-15T12:39:50Z</time>
      </trkpt>
      <trkpt lat="42.94002" lon="0.29055">
        <ele>1146</ele>
        <time>2020-02-15T12:39:56Z</time>
      </trkpt>
      <trkpt lat="42.94005" lon="0.29041">
        <ele>1146</ele>
        <time>2020-02-15T12:39:58Z</time>
      </trkpt>
      <trkpt lat="42.94005" lon="0.29017">
        <ele>1145</ele>
        <time>2020-02-15T12:40:01Z</time>
      </trkpt>
      <trkpt lat="42.94024" lon="0.28894">
        <ele>1141</ele>
        <time>2020-02-15T12:40:20Z</time>
      </trkpt>
      <trkpt lat="42.94026" lon="0.28888">
        <ele>1141</ele>
        <time>2020-02-15T12:40:22Z</time>
      </trkpt>
      <trkpt lat="42.94024" lon="0.28882">
        <ele>1141</ele>
        <time>2020-02-15T12:40:24Z</time>
      </trkpt>
      <trkpt lat="42.94024" lon="0.28874">
        <ele>1141</ele>
        <time>2020-02-15T12:40:34Z</time>
      </trkpt>
      <trkpt lat="42.94028" lon="0.28858">
        <ele>1140</ele>
        <time>2020-02-15T12:40:49Z</time>
      </trkpt>
      <trkpt lat="42.94029" lon="0.28855">
        <ele>1140</ele>
        <time>2020-02-15T12:40:57Z</time>
      </trkpt>
      <trkpt lat="42.94031" lon="0.28855">
        <ele>1140</ele>
        <time>2020-02-15T12:40:59Z</time>
      </trkpt>
      <trkpt lat="42.94031" lon="0.28858">
        <ele>1140</ele>
        <time>2020-02-15T12:41:00Z</time>
      </trkpt>
      <trkpt lat="42.9403" lon="0.2886">
        <ele>1140</ele>
        <time>2020-02-15T12:41:01Z</time>
      </trkpt>
      <trkpt lat="42.94022" lon="0.28875">
        <ele>1138</ele>
        <time>2020-02-15T12:41:05Z</time>
      </trkpt>
      <trkpt lat="42.9401" lon="0.28929">
        <ele>1136</ele>
        <time>2020-02-15T12:41:12Z</time>
      </trkpt>
      <trkpt lat="42.94008" lon="0.2895">
        <ele>1135</ele>
        <time>2020-02-15T12:41:15Z</time>
      </trkpt>
      <trkpt lat="42.94006" lon="0.28955">
        <ele>1135</ele>
        <time>2020-02-15T12:41:16Z</time>
      </trkpt>
      <trkpt lat="42.94001" lon="0.29043">
        <ele>1136</ele>
        <time>2020-02-15T12:41:28Z</time>
      </trkpt>
      <trkpt lat="42.93986" lon="0.29085">
        <ele>1136</ele>
        <time>2020-02-15T12:41:34Z</time>
      </trkpt>
      <trkpt lat="42.93978" lon="0.29097">
        <ele>1136</ele>
        <time>2020-02-15T12:41:36Z</time>
      </trkpt>
      <trkpt lat="42.93959" lon="0.29116">
        <ele>1137</ele>
        <time>2020-02-15T12:41:40Z</time>
      </trkpt>
      <trkpt lat="42.93954" lon="0.2912">
        <ele>1137</ele>
        <time>2020-02-15T12:41:41Z</time>
      </trkpt>
      <trkpt lat="42.93907" lon="0.29129">
        <ele>1137</ele>
        <time>2020-02-15T12:41:50Z</time>
      </trkpt>
      <trkpt lat="42.93859" lon="0.29122">
        <ele>1136</ele>
        <time>2020-02-15T12:41:58Z</time>
      </trkpt>
      <trkpt lat="42.93856" lon="0.29121">
        <ele>1136</ele>
        <time>2020-02-15T12:41:59Z</time>
      </trkpt>
      <trkpt lat="42.93852" lon="0.2912">
        <ele>1136</ele>
        <time>2020-02-15T12:42:01Z</time>
      </trkpt>
      <trkpt lat="42.93851" lon="0.29115">
        <ele>1136</ele>
        <time>2020-02-15T12:42:03Z</time>
      </trkpt>
      <trkpt lat="42.93851" lon="0.29108">
        <ele>1136</ele>
        <time>2020-02-15T12:42:05Z</time>
      </trkpt>
      <trkpt lat="42.93856" lon="0.29096">
        <ele>1136</ele>
        <time>2020-02-15T12:42:08Z</time>
      </trkpt>
      <trkpt lat="42.93859" lon="0.2909">
        <ele>1136</ele>
        <time>2020-02-15T12:42:10Z</time>
      </trkpt>
      <trkpt lat="42.93863" lon="0.29086">
        <ele>1136</ele>
        <time>2020-02-15T12:42:12Z</time>
      </trkpt>
      <trkpt lat="42.93867" lon="0.29082">
        <ele>1136</ele>
        <time>2020-02-15T12:42:15Z</time>
      </trkpt>
      <trkpt lat="42.93868" lon="0.29075">
        <ele>1136</ele>
        <time>2020-02-15T12:42:17Z</time>
      </trkpt>
      <trkpt lat="42.9387" lon="0.2907">
        <ele>1136</ele>
        <time>2020-02-15T12:42:19Z</time>
      </trkpt>
      <trkpt lat="42.93881" lon="0.29062">
        <ele>1136</ele>
        <time>2020-02-15T12:42:23Z</time>
      </trkpt>
      <trkpt lat="42.93886" lon="0.29056">
        <ele>1136</ele>
        <time>2020-02-15T12:42:25Z</time>
      </trkpt>
      <trkpt lat="42.93891" lon="0.2905">
        <ele>1136</ele>
        <time>2020-02-15T12:42:27Z</time>
      </trkpt>
      <trkpt lat="42.93895" lon="0.29038">
        <ele>1136</ele>
        <time>2020-02-15T12:42:30Z</time>
      </trkpt>
      <trkpt lat="42.9392" lon="0.28977">
        <ele>1135</ele>
        <time>2020-02-15T12:42:46Z</time>
      </trkpt>
      <trkpt lat="42.93922" lon="0.28972">
        <ele>1135</ele>
        <time>2020-02-15T12:42:48Z</time>
      </trkpt>
      <trkpt lat="42.93922" lon="0.28941">
        <ele>1135</ele>
        <time>2020-02-15T12:42:55Z</time>
      </trkpt>
      <trkpt lat="42.93923" lon="0.28934">
        <ele>1135</ele>
        <time>2020-02-15T12:42:56Z</time>
      </trkpt>
      <trkpt lat="42.93925" lon="0.28926">
        <ele>1135</ele>
        <time>2020-02-15T12:42:58Z</time>
      </trkpt>
      <trkpt lat="42.93931" lon="0.2892">
        <ele>1135</ele>
        <time>2020-02-15T12:43:01Z</time>
      </trkpt>
      <trkpt lat="42.9399" lon="0.28804">
        <ele>1132</ele>
        <time>2020-02-15T12:43:28Z</time>
      </trkpt>
      <trkpt lat="42.93991" lon="0.28801">
        <ele>1132</ele>
        <time>2020-02-15T12:43:30Z</time>
      </trkpt>
      <trkpt lat="42.93992" lon="0.28795">
        <ele>1132</ele>
        <time>2020-02-15T12:43:33Z</time>
      </trkpt>
      <trkpt lat="42.94004" lon="0.28737">
        <ele>1131</ele>
        <time>2020-02-15T12:43:46Z</time>
      </trkpt>
      <trkpt lat="42.94005" lon="0.28733">
        <ele>1131</ele>
        <time>2020-02-15T12:43:47Z</time>
      </trkpt>
      <trkpt lat="42.94022" lon="0.28704">
        <ele>1131</ele>
        <time>2020-02-15T12:44:18Z</time>
      </trkpt>
      <trkpt lat="42.94023" lon="0.28702">
        <ele>1130</ele>
        <time>2020-02-15T12:45:10Z</time>
      </trkpt>
      <trkpt lat="42.94022" lon="0.28699">
        <ele>1130</ele>
        <time>2020-02-15T12:45:45Z</time>
      </trkpt>
      <trkpt lat="42.94024" lon="0.28698">
        <ele>1128</ele>
        <time>2020-02-15T12:47:08Z</time>
      </trkpt>
      <trkpt lat="42.94023" lon="0.28697">
        <ele>1127</ele>
        <time>2020-02-15T12:48:16Z</time>
      </trkpt>
      <trkpt lat="42.94024" lon="0.28698">
        <ele>1126</ele>
        <time>2020-02-15T12:49:36Z</time>
      </trkpt>
      <trkpt lat="42.94023" lon="0.28698">
        <ele>1125</ele>
        <time>2020-02-15T12:51:34Z</time>
      </trkpt>
      <trkpt lat="42.94023" lon="0.28694">
        <ele>1124</ele>
        <time>2020-02-15T12:52:42Z</time>
      </trkpt>
      <trkpt lat="42.9404" lon="0.28664">
        <ele>1121</ele>
        <time>2020-02-15T12:52:54Z</time>
      </trkpt>
      <trkpt lat="42.94049" lon="0.2864">
        <ele>1120</ele>
        <time>2020-02-15T12:53:02Z</time>
      </trkpt>
      <trkpt lat="42.94056" lon="0.28602">
        <ele>1119</ele>
        <time>2020-02-15T12:53:12Z</time>
      </trkpt>
      <trkpt lat="42.94057" lon="0.28589">
        <ele>1119</ele>
        <time>2020-02-15T12:53:16Z</time>
      </trkpt>
      <trkpt lat="42.94057" lon="0.28585">
        <ele>1119</ele>
        <time>2020-02-15T12:53:17Z</time>
      </trkpt>
      <trkpt lat="42.94059" lon="0.28578">
        <ele>1119</ele>
        <time>2020-02-15T12:53:19Z</time>
      </trkpt>
      <trkpt lat="42.94063" lon="0.28572">
        <ele>1119</ele>
        <time>2020-02-15T12:53:21Z</time>
      </trkpt>
      <trkpt lat="42.94073" lon="0.28554">
        <ele>1119</ele>
        <time>2020-02-15T12:53:26Z</time>
      </trkpt>
      <trkpt lat="42.94077" lon="0.28547">
        <ele>1119</ele>
        <time>2020-02-15T12:53:28Z</time>
      </trkpt>
      <trkpt lat="42.9412" lon="0.28505">
        <ele>1117</ele>
        <time>2020-02-15T12:53:42Z</time>
      </trkpt>
      <trkpt lat="42.94129" lon="0.2849">
        <ele>1117</ele>
        <time>2020-02-15T12:53:46Z</time>
      </trkpt>
      <trkpt lat="42.94154" lon="0.2842">
        <ele>1116</ele>
        <time>2020-02-15T12:54:02Z</time>
      </trkpt>
      <trkpt lat="42.9416" lon="0.28414">
        <ele>1116</ele>
        <time>2020-02-15T12:54:05Z</time>
      </trkpt>
      <trkpt lat="42.94199" lon="0.28389">
        <ele>1116</ele>
        <time>2020-02-15T12:54:19Z</time>
      </trkpt>
      <trkpt lat="42.94202" lon="0.28388">
        <ele>1116</ele>
        <time>2020-02-15T12:54:20Z</time>
      </trkpt>
      <trkpt lat="42.94205" lon="0.28388">
        <ele>1116</ele>
        <time>2020-02-15T12:54:21Z</time>
      </trkpt>
      <trkpt lat="42.94211" lon="0.28393">
        <ele>1116</ele>
        <time>2020-02-15T12:54:23Z</time>
      </trkpt>
      <trkpt lat="42.94224" lon="0.28411">
        <ele>1116</ele>
        <time>2020-02-15T12:54:30Z</time>
      </trkpt>
      <trkpt lat="42.94244" lon="0.28461">
        <ele>1116</ele>
        <time>2020-02-15T12:54:42Z</time>
      </trkpt>
      <trkpt lat="42.94245" lon="0.28463">
        <ele>1116</ele>
        <time>2020-02-15T12:54:43Z</time>
      </trkpt>
      <trkpt lat="42.94248" lon="0.28464">
        <ele>1116</ele>
        <time>2020-02-15T12:54:44Z</time>
      </trkpt>
      <trkpt lat="42.94261" lon="0.28454">
        <ele>1116</ele>
        <time>2020-02-15T12:54:48Z</time>
      </trkpt>
      <trkpt lat="42.94264" lon="0.28452">
        <ele>1115</ele>
        <time>2020-02-15T12:54:49Z</time>
      </trkpt>
      <trkpt lat="42.94268" lon="0.28451">
        <ele>1115</ele>
        <time>2020-02-15T12:54:50Z</time>
      </trkpt>
      <trkpt lat="42.94271" lon="0.28451">
        <ele>1115</ele>
        <time>2020-02-15T12:54:51Z</time>
      </trkpt>
      <trkpt lat="42.94276" lon="0.28457">
        <ele>1115</ele>
        <time>2020-02-15T12:54:53Z</time>
      </trkpt>
      <trkpt lat="42.94279" lon="0.2847">
        <ele>1115</ele>
        <time>2020-02-15T12:54:56Z</time>
      </trkpt>
      <trkpt lat="42.9428" lon="0.28482">
        <ele>1115</ele>
        <time>2020-02-15T12:55:01Z</time>
      </trkpt>
      <trkpt lat="42.94278" lon="0.28481">
        <ele>1115</ele>
        <time>2020-02-15T12:55:58Z</time>
      </trkpt>
      <trkpt lat="42.94277" lon="0.28484">
        <ele>1115</ele>
        <time>2020-02-15T12:56:15Z</time>
      </trkpt>
      <trkpt lat="42.94276" lon="0.28485">
        <ele>1115</ele>
        <time>2020-02-15T12:56:20Z</time>
      </trkpt>
      <trkpt lat="42.94273" lon="0.28483">
        <ele>1115</ele>
        <time>2020-02-15T12:56:54Z</time>
      </trkpt>
      <trkpt lat="42.94273" lon="0.28481">
        <ele>1115</ele>
        <time>2020-02-15T12:57:21Z</time>
      </trkpt>
      <trkpt lat="42.94271" lon="0.2848">
        <ele>1115</ele>
        <time>2020-02-15T12:57:52Z</time>
      </trkpt>
      <trkpt lat="42.94273" lon="0.28483">
        <ele>1115</ele>
        <time>2020-02-15T12:58:20Z</time>
      </trkpt>
      <trkpt lat="42.9427" lon="0.28484">
        <ele>1115</ele>
        <time>2020-02-15T12:59:09Z</time>
      </trkpt>
      <trkpt lat="42.94271" lon="0.28482">
        <ele>1115</ele>
        <time>2020-02-15T12:59:42Z</time>
      </trkpt>
      <trkpt lat="42.9427" lon="0.28482">
        <ele>1116</ele>
        <time>2020-02-15T13:00:27Z</time>
      </trkpt>
      <trkpt lat="42.94268" lon="0.28484">
        <ele>1116</ele>
        <time>2020-02-15T13:00:49Z</time>
      </trkpt>
      <trkpt lat="42.9427" lon="0.28485">
        <ele>1116</ele>
        <time>2020-02-15T13:02:02Z</time>
      </trkpt>
      <trkpt lat="42.94274" lon="0.28485">
        <ele>1116</ele>
        <time>2020-02-15T13:02:38Z</time>
      </trkpt>
      <trkpt lat="42.94275" lon="0.28487">
        <ele>1116</ele>
        <time>2020-02-15T13:02:46Z</time>
      </trkpt>
    </trkseg>
  </trk>
</gpx>